<?xml version="1.0" encoding="UTF-8" standalone="no" ?>
<gpx xmlns="http://www.topografix.com/GPX/1/1" xmlns:xsi="http://www.w3.org/2001/XMLSchema-instance" xsi:schemaLocation="http://www.topografix.com/GPX/1/1 http://www.topografix.com/GPX/1/1/gpx.xsd" version="1.1" creator="VisuGPX - https://www.visugpx.com">
  <metadata>
    <name>Nantes Audax25kmIleBeaulieu</name>
    <desc><![CDATA[<p>Heure de départ: 06:31 25 sept. 2025<br/>Heure d'arrivée: 10:40 25 sept. 2025<br/>Distance: 25,1 km (04:09)<br/>Temps déplacement: 04:04<br/>Vitesse moyenne: 6,06 km/h<br/>Vitesse moyenne mouv.: 6,18 km/h<br/>Vitesse Max.: 8,67 km/h<br/>Altitude minimale: 3 m<br/>Altitude maximale: 45 m<br/>Vitesse de montée: 155,8 m/h<br/>Vitesse de descente: -177,7 m/h<br/>Gain d'altitude: 324 m<br/>Perte d'altitude: -325 m<br/>Temps de montée: 02:04<br/>Temps de descente: 01:49<br/></p><hr align="center" width="480" style="height: 2px; width: 517px"/>]]></desc>
  </metadata>
  <trk>
    <name><![CDATA[Nantes_AudaxIleBeaulieu25km]]></name>
    <desc><![CDATA[<p>Heure de départ: 06:31 25 sept. 2025<br/>Heure d'arrivée: 10:40 25 sept. 2025<br/>Distance: 25,1 km (04:09)<br/>Temps déplacement: 04:04<br/>Vitesse moyenne: 6,06 km/h<br/>Vitesse moyenne mouv.: 6,18 km/h<br/>Vitesse Max.: 8,67 km/h<br/>Altitude minimale: 3 m<br/>Altitude maximale: 45 m<br/>Vitesse de montée: 155,8 m/h<br/>Vitesse de descente: -177,7 m/h<br/>Gain d'altitude: 324 m<br/>Perte d'altitude: -325 m<br/>Temps de montée: 02:04<br/>Temps de descente: 01:49<br/></p><hr align="center" width="480" style="height: 2px; width: 517px"/>]]></desc>
    <extensions>
      <line xmlns="http://www.topografix.com/GPX/gpx_style/0/2">
        <color>0000FF</color>
        <opacity>1</opacity>
        <width>4</width>
      </line>
    </extensions>
    <trkseg>
      <trkpt lat="47.26894" lon="-1.54521">
        <ele>31.89</ele>
        <time>2025-09-25T04:31:51Z</time>
        <extensions>
          <visugpx:TrkExtension xmlns:visugpx="https://www.visugpx.com/editgpx/">
            <visugpx:node>1</visugpx:node>
            </visugpx:TrkExtension>
        </extensions>
      </trkpt>
      <trkpt lat="47.2688" lon="-1.54547">
        <ele>32</ele>
        <time>2025-09-25T04:32:07Z</time>
      </trkpt>
      <trkpt lat="47.26876" lon="-1.54576">
        <ele>32</ele>
        <time>2025-09-25T04:32:23Z</time>
      </trkpt>
      <trkpt lat="47.26872" lon="-1.54606">
        <ele>32.97</ele>
        <time>2025-09-25T04:32:35Z</time>
      </trkpt>
      <trkpt lat="47.26863" lon="-1.54631">
        <ele>33</ele>
        <time>2025-09-25T04:32:47Z</time>
      </trkpt>
      <trkpt lat="47.26868" lon="-1.54664">
        <ele>33</ele>
        <time>2025-09-25T04:33:03Z</time>
      </trkpt>
      <trkpt lat="47.26875" lon="-1.54697">
        <ele>30.02</ele>
        <time>2025-09-25T04:33:19Z</time>
      </trkpt>
      <trkpt lat="47.26882" lon="-1.54724">
        <ele>30</ele>
        <time>2025-09-25T04:33:31Z</time>
      </trkpt>
      <trkpt lat="47.2689" lon="-1.54752">
        <ele>27.9</ele>
        <time>2025-09-25T04:33:43Z</time>
      </trkpt>
      <trkpt lat="47.26897" lon="-1.54782">
        <ele>27.02</ele>
        <time>2025-09-25T04:33:55Z</time>
      </trkpt>
      <trkpt lat="47.26904" lon="-1.54813">
        <ele>27</ele>
        <time>2025-09-25T04:34:07Z</time>
      </trkpt>
      <trkpt lat="47.26911" lon="-1.54841">
        <ele>26.3</ele>
        <time>2025-09-25T04:34:19Z</time>
      </trkpt>
      <trkpt lat="47.26918" lon="-1.54869">
        <ele>26.71</ele>
        <time>2025-09-25T04:34:31Z</time>
      </trkpt>
      <trkpt lat="47.26923" lon="-1.54895">
        <ele>26.99</ele>
        <time>2025-09-25T04:34:43Z</time>
      </trkpt>
      <trkpt lat="47.26928" lon="-1.54925">
        <ele>26.3</ele>
        <time>2025-09-25T04:34:55Z</time>
      </trkpt>
      <trkpt lat="47.26924" lon="-1.54952">
        <ele>26.01</ele>
        <time>2025-09-25T04:35:07Z</time>
      </trkpt>
      <trkpt lat="47.26919" lon="-1.5498">
        <ele>26</ele>
        <time>2025-09-25T04:35:19Z</time>
      </trkpt>
      <trkpt lat="47.26919" lon="-1.55008">
        <ele>26.7</ele>
        <time>2025-09-25T04:35:31Z</time>
      </trkpt>
      <trkpt lat="47.26916" lon="-1.55037">
        <ele>25.17</ele>
        <time>2025-09-25T04:35:43Z</time>
      </trkpt>
      <trkpt lat="47.26921" lon="-1.55066">
        <ele>26.82</ele>
        <time>2025-09-25T04:35:55Z</time>
      </trkpt>
      <trkpt lat="47.26927" lon="-1.55093">
        <ele>28.82</ele>
        <time>2025-09-25T04:36:07Z</time>
      </trkpt>
      <trkpt lat="47.26933" lon="-1.55121">
        <ele>29</ele>
        <time>2025-09-25T04:36:19Z</time>
      </trkpt>
      <trkpt lat="47.26938" lon="-1.55148">
        <ele>29</ele>
        <time>2025-09-25T04:36:31Z</time>
      </trkpt>
      <trkpt lat="47.26945" lon="-1.55175">
        <ele>29.7</ele>
        <time>2025-09-25T04:36:43Z</time>
      </trkpt>
      <trkpt lat="47.2695" lon="-1.55204">
        <ele>29.99</ele>
        <time>2025-09-25T04:36:55Z</time>
      </trkpt>
      <trkpt lat="47.26943" lon="-1.55233">
        <ele>30</ele>
        <time>2025-09-25T04:37:07Z</time>
      </trkpt>
      <trkpt lat="47.26925" lon="-1.55247">
        <ele>30</ele>
        <time>2025-09-25T04:37:19Z</time>
      </trkpt>
      <trkpt lat="47.26906" lon="-1.55258">
        <ele>25.14</ele>
        <time>2025-09-25T04:37:31Z</time>
      </trkpt>
      <trkpt lat="47.26886" lon="-1.55264">
        <ele>25</ele>
        <time>2025-09-25T04:37:43Z</time>
      </trkpt>
      <trkpt lat="47.26868" lon="-1.55274">
        <ele>25</ele>
        <time>2025-09-25T04:37:55Z</time>
      </trkpt>
      <trkpt lat="47.26849" lon="-1.5528">
        <ele>25</ele>
        <time>2025-09-25T04:38:07Z</time>
      </trkpt>
      <trkpt lat="47.26829" lon="-1.55292">
        <ele>25</ele>
        <time>2025-09-25T04:38:19Z</time>
      </trkpt>
      <trkpt lat="47.26811" lon="-1.55308">
        <ele>25</ele>
        <time>2025-09-25T04:38:31Z</time>
      </trkpt>
      <trkpt lat="47.26792" lon="-1.55318">
        <ele>25</ele>
        <time>2025-09-25T04:38:43Z</time>
      </trkpt>
      <trkpt lat="47.26777" lon="-1.55337">
        <ele>23.6</ele>
        <time>2025-09-25T04:38:55Z</time>
      </trkpt>
      <trkpt lat="47.26759" lon="-1.55332">
        <ele>24.42</ele>
        <time>2025-09-25T04:39:07Z</time>
      </trkpt>
      <trkpt lat="47.26743" lon="-1.55319">
        <ele>23.16</ele>
        <time>2025-09-25T04:39:19Z</time>
      </trkpt>
      <trkpt lat="47.26723" lon="-1.55312">
        <ele>23</ele>
        <time>2025-09-25T04:39:31Z</time>
      </trkpt>
      <trkpt lat="47.26705" lon="-1.55307">
        <ele>23</ele>
        <time>2025-09-25T04:39:43Z</time>
      </trkpt>
      <trkpt lat="47.26687" lon="-1.553">
        <ele>23</ele>
        <time>2025-09-25T04:39:55Z</time>
      </trkpt>
      <trkpt lat="47.26669" lon="-1.55288">
        <ele>23</ele>
        <time>2025-09-25T04:40:11Z</time>
      </trkpt>
      <trkpt lat="47.26647" lon="-1.55274">
        <ele>21.05</ele>
        <time>2025-09-25T04:40:39Z</time>
      </trkpt>
      <trkpt lat="47.2663" lon="-1.55263">
        <ele>21</ele>
        <time>2025-09-25T04:40:47Z</time>
      </trkpt>
      <trkpt lat="47.26612" lon="-1.5525">
        <ele>21.7</ele>
        <time>2025-09-25T04:40:59Z</time>
      </trkpt>
      <trkpt lat="47.26593" lon="-1.55238">
        <ele>21.99</ele>
        <time>2025-09-25T04:41:11Z</time>
      </trkpt>
      <trkpt lat="47.26576" lon="-1.55231">
        <ele>22</ele>
        <time>2025-09-25T04:41:19Z</time>
      </trkpt>
      <trkpt lat="47.2656" lon="-1.55254">
        <ele>22.7</ele>
        <time>2025-09-25T04:41:31Z</time>
      </trkpt>
      <trkpt lat="47.26547" lon="-1.55284">
        <ele>22.99</ele>
        <time>2025-09-25T04:41:43Z</time>
      </trkpt>
      <trkpt lat="47.26536" lon="-1.5531">
        <ele>23</ele>
        <time>2025-09-25T04:41:55Z</time>
      </trkpt>
      <trkpt lat="47.2652" lon="-1.5533">
        <ele>23</ele>
        <time>2025-09-25T04:42:07Z</time>
      </trkpt>
      <trkpt lat="47.26499" lon="-1.55328">
        <ele>21.6</ele>
        <time>2025-09-25T04:42:19Z</time>
      </trkpt>
      <trkpt lat="47.26481" lon="-1.5531">
        <ele>21.02</ele>
        <time>2025-09-25T04:42:31Z</time>
      </trkpt>
      <trkpt lat="47.2646" lon="-1.55297">
        <ele>21</ele>
        <time>2025-09-25T04:42:43Z</time>
      </trkpt>
      <trkpt lat="47.26441" lon="-1.55282">
        <ele>21</ele>
        <time>2025-09-25T04:42:55Z</time>
      </trkpt>
      <trkpt lat="47.26426" lon="-1.55264">
        <ele>21</ele>
        <time>2025-09-25T04:43:07Z</time>
      </trkpt>
      <trkpt lat="47.26407" lon="-1.55249">
        <ele>19.88</ele>
        <time>2025-09-25T04:43:19Z</time>
      </trkpt>
      <trkpt lat="47.2639" lon="-1.55234">
        <ele>20</ele>
        <time>2025-09-25T04:43:31Z</time>
      </trkpt>
      <trkpt lat="47.26374" lon="-1.55221">
        <ele>20</ele>
        <time>2025-09-25T04:43:43Z</time>
      </trkpt>
      <trkpt lat="47.26356" lon="-1.55205">
        <ele>20</ele>
        <time>2025-09-25T04:43:55Z</time>
      </trkpt>
      <trkpt lat="47.26336" lon="-1.55197">
        <ele>20</ele>
        <time>2025-09-25T04:44:07Z</time>
      </trkpt>
      <trkpt lat="47.26319" lon="-1.55216">
        <ele>17.08</ele>
        <time>2025-09-25T04:44:19Z</time>
      </trkpt>
      <trkpt lat="47.263" lon="-1.55232">
        <ele>17</ele>
        <time>2025-09-25T04:44:31Z</time>
      </trkpt>
      <trkpt lat="47.26282" lon="-1.55248">
        <ele>17</ele>
        <time>2025-09-25T04:44:43Z</time>
      </trkpt>
      <trkpt lat="47.26268" lon="-1.5527">
        <ele>15.05</ele>
        <time>2025-09-25T04:44:55Z</time>
      </trkpt>
      <trkpt lat="47.26255" lon="-1.55291">
        <ele>15</ele>
        <time>2025-09-25T04:45:07Z</time>
      </trkpt>
      <trkpt lat="47.2624" lon="-1.55312">
        <ele>12.27</ele>
        <time>2025-09-25T04:45:19Z</time>
      </trkpt>
      <trkpt lat="47.26225" lon="-1.55332">
        <ele>12.01</ele>
        <time>2025-09-25T04:45:31Z</time>
      </trkpt>
      <trkpt lat="47.2621" lon="-1.55354">
        <ele>10.05</ele>
        <time>2025-09-25T04:45:43Z</time>
      </trkpt>
      <trkpt lat="47.2619" lon="-1.55352">
        <ele>10</ele>
        <time>2025-09-25T04:45:55Z</time>
      </trkpt>
      <trkpt lat="47.2617" lon="-1.55343">
        <ele>10</ele>
        <time>2025-09-25T04:46:07Z</time>
      </trkpt>
      <trkpt lat="47.2615" lon="-1.55332">
        <ele>9.73</ele>
        <time>2025-09-25T04:46:19Z</time>
      </trkpt>
      <trkpt lat="47.2613" lon="-1.55322">
        <ele>9.99</ele>
        <time>2025-09-25T04:46:31Z</time>
      </trkpt>
      <trkpt lat="47.26113" lon="-1.55315">
        <ele>10</ele>
        <time>2025-09-25T04:46:43Z</time>
      </trkpt>
      <trkpt lat="47.26095" lon="-1.55326">
        <ele>10</ele>
        <time>2025-09-25T04:46:55Z</time>
      </trkpt>
      <trkpt lat="47.26085" lon="-1.55351">
        <ele>9.03</ele>
        <time>2025-09-25T04:47:07Z</time>
      </trkpt>
      <trkpt lat="47.26071" lon="-1.55382">
        <ele>7.02</ele>
        <time>2025-09-25T04:47:23Z</time>
      </trkpt>
      <trkpt lat="47.26059" lon="-1.55405">
        <ele>7</ele>
        <time>2025-09-25T04:47:35Z</time>
      </trkpt>
      <trkpt lat="47.26051" lon="-1.55431">
        <ele>6.09</ele>
        <time>2025-09-25T04:47:47Z</time>
      </trkpt>
      <trkpt lat="47.26042" lon="-1.55458">
        <ele>6</ele>
        <time>2025-09-25T04:47:59Z</time>
      </trkpt>
      <trkpt lat="47.26032" lon="-1.5549">
        <ele>6</ele>
        <time>2025-09-25T04:48:15Z</time>
      </trkpt>
      <trkpt lat="47.26025" lon="-1.55516">
        <ele>6.91</ele>
        <time>2025-09-25T04:48:27Z</time>
      </trkpt>
      <trkpt lat="47.26014" lon="-1.5554">
        <ele>7</ele>
        <time>2025-09-25T04:48:39Z</time>
      </trkpt>
      <trkpt lat="47.26005" lon="-1.55565">
        <ele>7</ele>
        <time>2025-09-25T04:48:51Z</time>
      </trkpt>
      <trkpt lat="47.25999" lon="-1.55595">
        <ele>9.73</ele>
        <time>2025-09-25T04:49:03Z</time>
      </trkpt>
      <trkpt lat="47.2598" lon="-1.55615">
        <ele>10</ele>
        <time>2025-09-25T04:49:19Z</time>
      </trkpt>
      <trkpt lat="47.25962" lon="-1.55622">
        <ele>10</ele>
        <time>2025-09-25T04:49:31Z</time>
      </trkpt>
      <trkpt lat="47.25952" lon="-1.55651">
        <ele>10</ele>
        <time>2025-09-25T04:49:43Z</time>
      </trkpt>
      <trkpt lat="47.25943" lon="-1.55676">
        <ele>12.73</ele>
        <time>2025-09-25T04:49:55Z</time>
      </trkpt>
      <trkpt lat="47.25947" lon="-1.55704">
        <ele>12.99</ele>
        <time>2025-09-25T04:50:07Z</time>
      </trkpt>
      <trkpt lat="47.2595" lon="-1.55736">
        <ele>13</ele>
        <time>2025-09-25T04:50:23Z</time>
      </trkpt>
      <trkpt lat="47.25929" lon="-1.55748">
        <ele>13.13</ele>
        <time>2025-09-25T04:50:43Z</time>
      </trkpt>
      <trkpt lat="47.25906" lon="-1.55751">
        <ele>11.31</ele>
        <time>2025-09-25T04:50:55Z</time>
      </trkpt>
      <trkpt lat="47.25885" lon="-1.55767">
        <ele>11.01</ele>
        <time>2025-09-25T04:51:07Z</time>
      </trkpt>
      <trkpt lat="47.25877" lon="-1.55794">
        <ele>11</ele>
        <time>2025-09-25T04:51:19Z</time>
      </trkpt>
      <trkpt lat="47.25858" lon="-1.5581">
        <ele>11</ele>
        <time>2025-09-25T04:51:35Z</time>
      </trkpt>
      <trkpt lat="47.25842" lon="-1.55828">
        <ele>11</ele>
        <time>2025-09-25T04:51:47Z</time>
      </trkpt>
      <trkpt lat="47.25836" lon="-1.5586">
        <ele>16.95</ele>
        <time>2025-09-25T04:52:03Z</time>
      </trkpt>
      <trkpt lat="47.25823" lon="-1.55882">
        <ele>15.05</ele>
        <time>2025-09-25T04:52:15Z</time>
      </trkpt>
      <trkpt lat="47.25805" lon="-1.55906">
        <ele>15</ele>
        <time>2025-09-25T04:52:31Z</time>
      </trkpt>
      <trkpt lat="47.25789" lon="-1.55923">
        <ele>18.64</ele>
        <time>2025-09-25T04:52:43Z</time>
      </trkpt>
      <trkpt lat="47.25769" lon="-1.5593">
        <ele>18.99</ele>
        <time>2025-09-25T04:52:55Z</time>
      </trkpt>
      <trkpt lat="47.25764" lon="-1.55967">
        <ele>19</ele>
        <time>2025-09-25T04:53:11Z</time>
      </trkpt>
      <trkpt lat="47.25755" lon="-1.55998">
        <ele>19</ele>
        <time>2025-09-25T04:53:23Z</time>
      </trkpt>
      <trkpt lat="47.25749" lon="-1.56025">
        <ele>15.23</ele>
        <time>2025-09-25T04:53:35Z</time>
      </trkpt>
      <trkpt lat="47.25738" lon="-1.56047">
        <ele>14.03</ele>
        <time>2025-09-25T04:53:47Z</time>
      </trkpt>
      <trkpt lat="47.25723" lon="-1.56075">
        <ele>14</ele>
        <time>2025-09-25T04:54:03Z</time>
      </trkpt>
      <trkpt lat="47.25709" lon="-1.56101">
        <ele>11.02</ele>
        <time>2025-09-25T04:54:19Z</time>
      </trkpt>
      <trkpt lat="47.25704" lon="-1.5613">
        <ele>11</ele>
        <time>2025-09-25T04:54:31Z</time>
      </trkpt>
      <trkpt lat="47.25692" lon="-1.56156">
        <ele>11</ele>
        <time>2025-09-25T04:54:43Z</time>
      </trkpt>
      <trkpt lat="47.25679" lon="-1.56184">
        <ele>14.64</ele>
        <time>2025-09-25T04:54:55Z</time>
      </trkpt>
      <trkpt lat="47.2567" lon="-1.56211">
        <ele>14.99</ele>
        <time>2025-09-25T04:55:07Z</time>
      </trkpt>
      <trkpt lat="47.25662" lon="-1.56239">
        <ele>13.05</ele>
        <time>2025-09-25T04:55:19Z</time>
      </trkpt>
      <trkpt lat="47.25657" lon="-1.56267">
        <ele>14.82</ele>
        <time>2025-09-25T04:55:31Z</time>
      </trkpt>
      <trkpt lat="47.2565" lon="-1.563">
        <ele>15</ele>
        <time>2025-09-25T04:55:47Z</time>
      </trkpt>
      <trkpt lat="47.25639" lon="-1.56323">
        <ele>15</ele>
        <time>2025-09-25T04:55:59Z</time>
      </trkpt>
      <trkpt lat="47.25625" lon="-1.56349">
        <ele>19.86</ele>
        <time>2025-09-25T04:56:15Z</time>
      </trkpt>
      <trkpt lat="47.25616" lon="-1.56375">
        <ele>20</ele>
        <time>2025-09-25T04:56:27Z</time>
      </trkpt>
      <trkpt lat="47.25604" lon="-1.56406">
        <ele>20</ele>
        <time>2025-09-25T04:56:43Z</time>
      </trkpt>
      <trkpt lat="47.25593" lon="-1.56431">
        <ele>20.91</ele>
        <time>2025-09-25T04:56:55Z</time>
      </trkpt>
      <trkpt lat="47.25586" lon="-1.56459">
        <ele>21</ele>
        <time>2025-09-25T04:57:11Z</time>
      </trkpt>
      <trkpt lat="47.25583" lon="-1.5649">
        <ele>19.6</ele>
        <time>2025-09-25T04:57:27Z</time>
      </trkpt>
      <trkpt lat="47.2556" lon="-1.56489">
        <ele>19</ele>
        <time>2025-09-25T04:57:43Z</time>
      </trkpt>
      <trkpt lat="47.25544" lon="-1.56472">
        <ele>19</ele>
        <time>2025-09-25T04:57:55Z</time>
      </trkpt>
      <trkpt lat="47.25537" lon="-1.5644">
        <ele>19</ele>
        <time>2025-09-25T04:58:12Z</time>
      </trkpt>
      <trkpt lat="47.25528" lon="-1.56409">
        <ele>19.91</ele>
        <time>2025-09-25T04:58:28Z</time>
      </trkpt>
      <trkpt lat="47.25518" lon="-1.56379">
        <ele>20</ele>
        <time>2025-09-25T04:58:44Z</time>
      </trkpt>
      <trkpt lat="47.25505" lon="-1.5636">
        <ele>20</ele>
        <time>2025-09-25T04:58:56Z</time>
      </trkpt>
      <trkpt lat="47.25487" lon="-1.5636">
        <ele>24.86</ele>
        <time>2025-09-25T04:59:08Z</time>
      </trkpt>
      <trkpt lat="47.2547" lon="-1.56372">
        <ele>25</ele>
        <time>2025-09-25T04:59:20Z</time>
      </trkpt>
      <trkpt lat="47.25446" lon="-1.56388">
        <ele>25</ele>
        <time>2025-09-25T04:59:36Z</time>
      </trkpt>
      <trkpt lat="47.25428" lon="-1.56402">
        <ele>25</ele>
        <time>2025-09-25T04:59:48Z</time>
      </trkpt>
      <trkpt lat="47.25411" lon="-1.56414">
        <ele>25.91</ele>
        <time>2025-09-25T05:00:00Z</time>
      </trkpt>
      <trkpt lat="47.25391" lon="-1.56401">
        <ele>26</ele>
        <time>2025-09-25T05:00:16Z</time>
      </trkpt>
      <trkpt lat="47.25372" lon="-1.56414">
        <ele>26</ele>
        <time>2025-09-25T05:00:28Z</time>
      </trkpt>
      <trkpt lat="47.25354" lon="-1.56406">
        <ele>26</ele>
        <time>2025-09-25T05:00:40Z</time>
      </trkpt>
      <trkpt lat="47.2533" lon="-1.56396">
        <ele>26.7</ele>
        <time>2025-09-25T05:00:56Z</time>
      </trkpt>
      <trkpt lat="47.2531" lon="-1.5639">
        <ele>26.99</ele>
        <time>2025-09-25T05:01:08Z</time>
      </trkpt>
      <trkpt lat="47.25292" lon="-1.56384">
        <ele>27</ele>
        <time>2025-09-25T05:01:20Z</time>
      </trkpt>
      <trkpt lat="47.25273" lon="-1.56378">
        <ele>27</ele>
        <time>2025-09-25T05:01:32Z</time>
      </trkpt>
      <trkpt lat="47.25254" lon="-1.56375">
        <ele>27</ele>
        <time>2025-09-25T05:01:44Z</time>
      </trkpt>
      <trkpt lat="47.25231" lon="-1.56378">
        <ele>26.01</ele>
        <time>2025-09-25T05:02:00Z</time>
      </trkpt>
      <trkpt lat="47.25215" lon="-1.56398">
        <ele>26</ele>
        <time>2025-09-25T05:02:12Z</time>
      </trkpt>
      <trkpt lat="47.25198" lon="-1.56409">
        <ele>26</ele>
        <time>2025-09-25T05:02:24Z</time>
      </trkpt>
      <trkpt lat="47.2518" lon="-1.56414">
        <ele>26</ele>
        <time>2025-09-25T05:02:36Z</time>
      </trkpt>
      <trkpt lat="47.25173" lon="-1.56446">
        <ele>27.98</ele>
        <time>2025-09-25T05:02:52Z</time>
      </trkpt>
      <trkpt lat="47.25171" lon="-1.56482">
        <ele>28</ele>
        <time>2025-09-25T05:03:08Z</time>
      </trkpt>
      <trkpt lat="47.25171" lon="-1.56512">
        <ele>29.82</ele>
        <time>2025-09-25T05:03:20Z</time>
      </trkpt>
      <trkpt lat="47.25167" lon="-1.56544">
        <ele>30</ele>
        <time>2025-09-25T05:03:36Z</time>
      </trkpt>
      <trkpt lat="47.25163" lon="-1.56575">
        <ele>32.92</ele>
        <time>2025-09-25T05:03:52Z</time>
      </trkpt>
      <trkpt lat="47.25155" lon="-1.56602">
        <ele>34.82</ele>
        <time>2025-09-25T05:04:04Z</time>
      </trkpt>
      <trkpt lat="47.25149" lon="-1.56632">
        <ele>35</ele>
        <time>2025-09-25T05:04:16Z</time>
      </trkpt>
      <trkpt lat="47.25139" lon="-1.56655">
        <ele>35</ele>
        <time>2025-09-25T05:04:28Z</time>
      </trkpt>
      <trkpt lat="47.25125" lon="-1.56679">
        <ele>32.08</ele>
        <time>2025-09-25T05:04:44Z</time>
      </trkpt>
      <trkpt lat="47.25114" lon="-1.56704">
        <ele>32</ele>
        <time>2025-09-25T05:04:56Z</time>
      </trkpt>
      <trkpt lat="47.25095" lon="-1.56727">
        <ele>32</ele>
        <time>2025-09-25T05:05:12Z</time>
      </trkpt>
      <trkpt lat="47.25079" lon="-1.56745">
        <ele>37.6</ele>
        <time>2025-09-25T05:05:24Z</time>
      </trkpt>
      <trkpt lat="47.25059" lon="-1.56764">
        <ele>37</ele>
        <time>2025-09-25T05:05:40Z</time>
      </trkpt>
      <trkpt lat="47.25041" lon="-1.56777">
        <ele>37</ele>
        <time>2025-09-25T05:05:52Z</time>
      </trkpt>
      <trkpt lat="47.25022" lon="-1.56792">
        <ele>37</ele>
        <time>2025-09-25T05:06:08Z</time>
      </trkpt>
      <trkpt lat="47.25002" lon="-1.568">
        <ele>37</ele>
        <time>2025-09-25T05:06:20Z</time>
      </trkpt>
      <trkpt lat="47.24982" lon="-1.56808">
        <ele>37.97</ele>
        <time>2025-09-25T05:06:32Z</time>
      </trkpt>
      <trkpt lat="47.24964" lon="-1.56817">
        <ele>38</ele>
        <time>2025-09-25T05:06:44Z</time>
      </trkpt>
      <trkpt lat="47.24942" lon="-1.56815">
        <ele>38</ele>
        <time>2025-09-25T05:06:56Z</time>
      </trkpt>
      <trkpt lat="47.24924" lon="-1.56816">
        <ele>38</ele>
        <time>2025-09-25T05:07:08Z</time>
      </trkpt>
      <trkpt lat="47.24904" lon="-1.56819">
        <ele>36.18</ele>
        <time>2025-09-25T05:07:20Z</time>
      </trkpt>
      <trkpt lat="47.24885" lon="-1.56817">
        <ele>36</ele>
        <time>2025-09-25T05:07:32Z</time>
      </trkpt>
      <trkpt lat="47.24866" lon="-1.56813">
        <ele>36</ele>
        <time>2025-09-25T05:07:44Z</time>
      </trkpt>
      <trkpt lat="47.24847" lon="-1.56812">
        <ele>36</ele>
        <time>2025-09-25T05:07:56Z</time>
      </trkpt>
      <trkpt lat="47.24829" lon="-1.56807">
        <ele>33.2</ele>
        <time>2025-09-25T05:08:08Z</time>
      </trkpt>
      <trkpt lat="47.24811" lon="-1.56801">
        <ele>32.03</ele>
        <time>2025-09-25T05:08:20Z</time>
      </trkpt>
      <trkpt lat="47.24792" lon="-1.56793">
        <ele>32</ele>
        <time>2025-09-25T05:08:32Z</time>
      </trkpt>
      <trkpt lat="47.24773" lon="-1.56781">
        <ele>32</ele>
        <time>2025-09-25T05:08:44Z</time>
      </trkpt>
      <trkpt lat="47.24752" lon="-1.56772">
        <ele>32</ele>
        <time>2025-09-25T05:08:56Z</time>
      </trkpt>
      <trkpt lat="47.24732" lon="-1.5677">
        <ele>30.05</ele>
        <time>2025-09-25T05:09:08Z</time>
      </trkpt>
      <trkpt lat="47.24717" lon="-1.5679">
        <ele>30</ele>
        <time>2025-09-25T05:09:20Z</time>
      </trkpt>
      <trkpt lat="47.2471" lon="-1.56817">
        <ele>30</ele>
        <time>2025-09-25T05:09:32Z</time>
      </trkpt>
      <trkpt lat="47.24707" lon="-1.56845">
        <ele>31.82</ele>
        <time>2025-09-25T05:09:44Z</time>
      </trkpt>
      <trkpt lat="47.24702" lon="-1.56873">
        <ele>32</ele>
        <time>2025-09-25T05:10:00Z</time>
      </trkpt>
      <trkpt lat="47.24699" lon="-1.56909">
        <ele>32</ele>
        <time>2025-09-25T05:10:16Z</time>
      </trkpt>
      <trkpt lat="47.24693" lon="-1.56937">
        <ele>32</ele>
        <time>2025-09-25T05:10:28Z</time>
      </trkpt>
      <trkpt lat="47.2469" lon="-1.56967">
        <ele>32</ele>
        <time>2025-09-25T05:10:40Z</time>
      </trkpt>
      <trkpt lat="47.2469" lon="-1.56999">
        <ele>32</ele>
        <time>2025-09-25T05:10:52Z</time>
      </trkpt>
      <trkpt lat="47.24683" lon="-1.57031">
        <ele>32.97</ele>
        <time>2025-09-25T05:11:04Z</time>
      </trkpt>
      <trkpt lat="47.24548" lon="-1.57103">
        <ele>7.7</ele>
      </trkpt>
      <trkpt lat="47.2455" lon="-1.57174">
        <ele>8.9</ele>
      </trkpt>
      <trkpt lat="47.24547" lon="-1.57348">
        <ele>11.1</ele>
      </trkpt>
      <trkpt lat="47.24596" lon="-1.5751">
        <ele>8.7</ele>
      </trkpt>
      <trkpt lat="47.24571" lon="-1.57526">
        <ele>6.5</ele>
      </trkpt>
      <trkpt lat="47.24515" lon="-1.57487">
        <ele>13.3</ele>
      </trkpt>
      <trkpt lat="47.24507" lon="-1.57329">
        <ele>6.6</ele>
      </trkpt>
      <trkpt lat="47.24472" lon="-1.57269">
        <ele>8.1</ele>
      </trkpt>
      <trkpt lat="47.24493" lon="-1.57099">
        <ele>8.1</ele>
      </trkpt>
      <trkpt lat="47.24367" lon="-1.56879">
        <ele>12</ele>
        <time>2025-09-25T05:47:24Z</time>
      </trkpt>
      <trkpt lat="47.24362" lon="-1.56852">
        <ele>12</ele>
        <time>2025-09-25T05:47:36Z</time>
      </trkpt>
      <trkpt lat="47.24355" lon="-1.56825">
        <ele>14.1</ele>
        <time>2025-09-25T05:47:48Z</time>
      </trkpt>
      <trkpt lat="47.24352" lon="-1.56796">
        <ele>14.98</ele>
        <time>2025-09-25T05:48:00Z</time>
      </trkpt>
      <trkpt lat="47.24349" lon="-1.56768">
        <ele>15</ele>
        <time>2025-09-25T05:48:12Z</time>
      </trkpt>
      <trkpt lat="47.24346" lon="-1.56735">
        <ele>15</ele>
        <time>2025-09-25T05:48:28Z</time>
      </trkpt>
      <trkpt lat="47.24341" lon="-1.56702">
        <ele>15</ele>
        <time>2025-09-25T05:48:44Z</time>
      </trkpt>
      <trkpt lat="47.24338" lon="-1.56665">
        <ele>15</ele>
        <time>2025-09-25T05:49:04Z</time>
      </trkpt>
      <trkpt lat="47.24334" lon="-1.56632">
        <ele>15</ele>
        <time>2025-09-25T05:49:20Z</time>
      </trkpt>
      <trkpt lat="47.24332" lon="-1.566">
        <ele>20.75</ele>
        <time>2025-09-25T05:49:36Z</time>
      </trkpt>
      <trkpt lat="47.24329" lon="-1.56565">
        <ele>23.95</ele>
        <time>2025-09-25T05:49:52Z</time>
      </trkpt>
      <trkpt lat="47.24339" lon="-1.56535">
        <ele>16.72</ele>
        <time>2025-09-25T05:50:08Z</time>
      </trkpt>
      <trkpt lat="47.24355" lon="-1.56514">
        <ele>16.02</ele>
        <time>2025-09-25T05:50:20Z</time>
      </trkpt>
      <trkpt lat="47.24359" lon="-1.56485">
        <ele>16</ele>
        <time>2025-09-25T05:50:36Z</time>
      </trkpt>
      <trkpt lat="47.24361" lon="-1.56459">
        <ele>16</ele>
        <time>2025-09-25T05:50:48Z</time>
      </trkpt>
      <trkpt lat="47.24366" lon="-1.56431">
        <ele>16</ele>
        <time>2025-09-25T05:51:00Z</time>
      </trkpt>
      <trkpt lat="47.24363" lon="-1.56401">
        <ele>16.97</ele>
        <time>2025-09-25T05:51:16Z</time>
      </trkpt>
      <trkpt lat="47.24365" lon="-1.56371">
        <ele>17</ele>
        <time>2025-09-25T05:51:32Z</time>
      </trkpt>
      <trkpt lat="47.2437" lon="-1.56343">
        <ele>17</ele>
        <time>2025-09-25T05:51:44Z</time>
      </trkpt>
      <trkpt lat="47.24374" lon="-1.56309">
        <ele>16.03</ele>
        <time>2025-09-25T05:52:00Z</time>
      </trkpt>
      <trkpt lat="47.24376" lon="-1.56275">
        <ele>16</ele>
        <time>2025-09-25T05:52:16Z</time>
      </trkpt>
      <trkpt lat="47.24371" lon="-1.56247">
        <ele>16</ele>
        <time>2025-09-25T05:52:28Z</time>
      </trkpt>
      <trkpt lat="47.24362" lon="-1.56221">
        <ele>16</ele>
        <time>2025-09-25T05:52:40Z</time>
      </trkpt>
      <trkpt lat="47.2435" lon="-1.562">
        <ele>16</ele>
        <time>2025-09-25T05:52:52Z</time>
      </trkpt>
      <trkpt lat="47.24337" lon="-1.56179">
        <ele>16</ele>
        <time>2025-09-25T05:53:04Z</time>
      </trkpt>
      <trkpt lat="47.24324" lon="-1.56154">
        <ele>18.39</ele>
        <time>2025-09-25T05:53:16Z</time>
      </trkpt>
      <trkpt lat="47.2431" lon="-1.56137">
        <ele>18</ele>
        <time>2025-09-25T05:53:32Z</time>
      </trkpt>
      <trkpt lat="47.24295" lon="-1.56118">
        <ele>18</ele>
        <time>2025-09-25T05:53:48Z</time>
      </trkpt>
      <trkpt lat="47.24279" lon="-1.56093">
        <ele>18</ele>
        <time>2025-09-25T05:54:04Z</time>
      </trkpt>
      <trkpt lat="47.2427" lon="-1.56065">
        <ele>13.45</ele>
        <time>2025-09-25T05:54:16Z</time>
      </trkpt>
      <trkpt lat="47.24272" lon="-1.56037">
        <ele>13</ele>
        <time>2025-09-25T05:54:32Z</time>
      </trkpt>
      <trkpt lat="47.24266" lon="-1.56009">
        <ele>13</ele>
        <time>2025-09-25T05:54:44Z</time>
      </trkpt>
      <trkpt lat="47.24256" lon="-1.55979">
        <ele>15.92</ele>
        <time>2025-09-25T05:55:00Z</time>
      </trkpt>
      <trkpt lat="47.24254" lon="-1.55952">
        <ele>16</ele>
        <time>2025-09-25T05:55:12Z</time>
      </trkpt>
      <trkpt lat="47.24252" lon="-1.55918">
        <ele>16</ele>
        <time>2025-09-25T05:55:24Z</time>
      </trkpt>
      <trkpt lat="47.24249" lon="-1.55882">
        <ele>10.62</ele>
        <time>2025-09-25T05:55:40Z</time>
      </trkpt>
      <trkpt lat="47.24245" lon="-1.55852">
        <ele>10.02</ele>
        <time>2025-09-25T05:55:52Z</time>
      </trkpt>
      <trkpt lat="47.24245" lon="-1.55818">
        <ele>10</ele>
        <time>2025-09-25T05:56:08Z</time>
      </trkpt>
      <trkpt lat="47.24242" lon="-1.55788">
        <ele>10</ele>
        <time>2025-09-25T05:56:20Z</time>
      </trkpt>
      <trkpt lat="47.24238" lon="-1.55761">
        <ele>10</ele>
        <time>2025-09-25T05:56:32Z</time>
      </trkpt>
      <trkpt lat="47.24232" lon="-1.55735">
        <ele>10</ele>
        <time>2025-09-25T05:56:44Z</time>
      </trkpt>
      <trkpt lat="47.24231" lon="-1.55699">
        <ele>10</ele>
        <time>2025-09-25T05:57:00Z</time>
      </trkpt>
      <trkpt lat="47.24229" lon="-1.5567">
        <ele>10</ele>
        <time>2025-09-25T05:57:12Z</time>
      </trkpt>
      <trkpt lat="47.24225" lon="-1.55637">
        <ele>11.98</ele>
        <time>2025-09-25T05:57:28Z</time>
      </trkpt>
      <trkpt lat="47.24202" lon="-1.55632">
        <ele>12</ele>
        <time>2025-09-25T05:57:44Z</time>
      </trkpt>
      <trkpt lat="47.24183" lon="-1.55628">
        <ele>12</ele>
        <time>2025-09-25T05:57:56Z</time>
      </trkpt>
      <trkpt lat="47.2416" lon="-1.55626">
        <ele>13.82</ele>
        <time>2025-09-25T05:58:12Z</time>
      </trkpt>
      <trkpt lat="47.24136" lon="-1.55629">
        <ele>14</ele>
        <time>2025-09-25T05:58:28Z</time>
      </trkpt>
      <trkpt lat="47.24117" lon="-1.55632">
        <ele>14</ele>
        <time>2025-09-25T05:58:40Z</time>
      </trkpt>
      <trkpt lat="47.24096" lon="-1.55643">
        <ele>14</ele>
        <time>2025-09-25T05:58:56Z</time>
      </trkpt>
      <trkpt lat="47.24074" lon="-1.55635">
        <ele>15.82</ele>
        <time>2025-09-25T05:59:12Z</time>
      </trkpt>
      <trkpt lat="47.24058" lon="-1.55611">
        <ele>16</ele>
        <time>2025-09-25T05:59:28Z</time>
      </trkpt>
      <trkpt lat="47.24042" lon="-1.55592">
        <ele>16</ele>
        <time>2025-09-25T05:59:44Z</time>
      </trkpt>
      <trkpt lat="47.24026" lon="-1.55574">
        <ele>16</ele>
        <time>2025-09-25T05:59:56Z</time>
      </trkpt>
      <trkpt lat="47.24008" lon="-1.55557">
        <ele>16</ele>
        <time>2025-09-25T06:00:08Z</time>
      </trkpt>
      <trkpt lat="47.23991" lon="-1.55541">
        <ele>18.73</ele>
        <time>2025-09-25T06:00:20Z</time>
      </trkpt>
      <trkpt lat="47.2397" lon="-1.55525">
        <ele>19</ele>
        <time>2025-09-25T06:00:36Z</time>
      </trkpt>
      <trkpt lat="47.23953" lon="-1.55502">
        <ele>19</ele>
        <time>2025-09-25T06:00:52Z</time>
      </trkpt>
      <trkpt lat="47.23944" lon="-1.55476">
        <ele>18.03</ele>
        <time>2025-09-25T06:01:04Z</time>
      </trkpt>
      <trkpt lat="47.23946" lon="-1.55443">
        <ele>18</ele>
        <time>2025-09-25T06:01:20Z</time>
      </trkpt>
      <trkpt lat="47.23938" lon="-1.55415">
        <ele>16.6</ele>
        <time>2025-09-25T06:01:32Z</time>
      </trkpt>
      <trkpt lat="47.23926" lon="-1.55389">
        <ele>16</ele>
        <time>2025-09-25T06:01:48Z</time>
      </trkpt>
      <trkpt lat="47.23908" lon="-1.55366">
        <ele>15.09</ele>
        <time>2025-09-25T06:02:04Z</time>
      </trkpt>
      <trkpt lat="47.23892" lon="-1.55353">
        <ele>15</ele>
        <time>2025-09-25T06:02:16Z</time>
      </trkpt>
      <trkpt lat="47.23878" lon="-1.55332">
        <ele>15</ele>
        <time>2025-09-25T06:02:28Z</time>
      </trkpt>
      <trkpt lat="47.23861" lon="-1.55308">
        <ele>15</ele>
        <time>2025-09-25T06:02:44Z</time>
      </trkpt>
      <trkpt lat="47.23854" lon="-1.55282">
        <ele>15</ele>
        <time>2025-09-25T06:02:56Z</time>
      </trkpt>
      <trkpt lat="47.23842" lon="-1.55257">
        <ele>15</ele>
        <time>2025-09-25T06:03:08Z</time>
      </trkpt>
      <trkpt lat="47.23832" lon="-1.55234">
        <ele>17.49</ele>
        <time>2025-09-25T06:03:20Z</time>
      </trkpt>
      <trkpt lat="47.23822" lon="-1.55211">
        <ele>17.01</ele>
        <time>2025-09-25T06:03:32Z</time>
      </trkpt>
      <trkpt lat="47.23807" lon="-1.55192">
        <ele>17</ele>
        <time>2025-09-25T06:03:44Z</time>
      </trkpt>
      <trkpt lat="47.23791" lon="-1.55177">
        <ele>17</ele>
        <time>2025-09-25T06:03:56Z</time>
      </trkpt>
      <trkpt lat="47.23772" lon="-1.55171">
        <ele>17</ele>
        <time>2025-09-25T06:04:08Z</time>
      </trkpt>
      <trkpt lat="47.23753" lon="-1.55168">
        <ele>17</ele>
        <time>2025-09-25T06:04:20Z</time>
      </trkpt>
      <trkpt lat="47.23732" lon="-1.55163">
        <ele>14.08</ele>
        <time>2025-09-25T06:04:32Z</time>
      </trkpt>
      <trkpt lat="47.23718" lon="-1.55136">
        <ele>14</ele>
        <time>2025-09-25T06:04:48Z</time>
      </trkpt>
      <trkpt lat="47.23711" lon="-1.5511">
        <ele>14</ele>
        <time>2025-09-25T06:05:00Z</time>
      </trkpt>
      <trkpt lat="47.23702" lon="-1.55087">
        <ele>14</ele>
        <time>2025-09-25T06:05:12Z</time>
      </trkpt>
      <trkpt lat="47.23683" lon="-1.55082">
        <ele>10.5</ele>
        <time>2025-09-25T06:05:24Z</time>
      </trkpt>
      <trkpt lat="47.23664" lon="-1.55061">
        <ele>7.61</ele>
        <time>2025-09-25T06:05:40Z</time>
      </trkpt>
      <trkpt lat="47.23646" lon="-1.55055">
        <ele>7.02</ele>
        <time>2025-09-25T06:05:52Z</time>
      </trkpt>
      <trkpt lat="47.23628" lon="-1.5505">
        <ele>7</ele>
        <time>2025-09-25T06:06:04Z</time>
      </trkpt>
      <trkpt lat="47.23608" lon="-1.55036">
        <ele>7</ele>
        <time>2025-09-25T06:06:20Z</time>
      </trkpt>
      <trkpt lat="47.23596" lon="-1.55016">
        <ele>7</ele>
        <time>2025-09-25T06:06:32Z</time>
      </trkpt>
      <trkpt lat="47.23582" lon="-1.54997">
        <ele>9.1</ele>
        <time>2025-09-25T06:06:44Z</time>
      </trkpt>
      <trkpt lat="47.23571" lon="-1.54968">
        <ele>9.99</ele>
        <time>2025-09-25T06:07:00Z</time>
      </trkpt>
      <trkpt lat="47.23555" lon="-1.54952">
        <ele>10</ele>
        <time>2025-09-25T06:07:12Z</time>
      </trkpt>
      <trkpt lat="47.23542" lon="-1.54924">
        <ele>10</ele>
        <time>2025-09-25T06:07:28Z</time>
      </trkpt>
      <trkpt lat="47.23518" lon="-1.54918">
        <ele>9.58</ele>
        <time>2025-09-25T06:07:40Z</time>
      </trkpt>
      <trkpt lat="47.23499" lon="-1.54908">
        <ele>10.84</ele>
        <time>2025-09-25T06:07:52Z</time>
      </trkpt>
      <trkpt lat="47.23475" lon="-1.54906">
        <ele>11.99</ele>
        <time>2025-09-25T06:08:08Z</time>
      </trkpt>
      <trkpt lat="47.23455" lon="-1.54902">
        <ele>12</ele>
        <time>2025-09-25T06:08:20Z</time>
      </trkpt>
      <trkpt lat="47.23436" lon="-1.549">
        <ele>12</ele>
        <time>2025-09-25T06:08:32Z</time>
      </trkpt>
      <trkpt lat="47.23418" lon="-1.54895">
        <ele>12</ele>
        <time>2025-09-25T06:08:44Z</time>
      </trkpt>
      <trkpt lat="47.234" lon="-1.54889">
        <ele>11.03</ele>
        <time>2025-09-25T06:08:56Z</time>
      </trkpt>
      <trkpt lat="47.23381" lon="-1.54889">
        <ele>11</ele>
        <time>2025-09-25T06:09:08Z</time>
      </trkpt>
      <trkpt lat="47.23361" lon="-1.5489">
        <ele>11</ele>
        <time>2025-09-25T06:09:20Z</time>
      </trkpt>
      <trkpt lat="47.23343" lon="-1.54887">
        <ele>11</ele>
        <time>2025-09-25T06:09:32Z</time>
      </trkpt>
      <trkpt lat="47.23321" lon="-1.54878">
        <ele>10.03</ele>
        <time>2025-09-25T06:09:48Z</time>
      </trkpt>
      <trkpt lat="47.23303" lon="-1.54873">
        <ele>10</ele>
        <time>2025-09-25T06:10:00Z</time>
      </trkpt>
      <trkpt lat="47.23281" lon="-1.54876">
        <ele>10</ele>
        <time>2025-09-25T06:10:16Z</time>
      </trkpt>
      <trkpt lat="47.23263" lon="-1.54878">
        <ele>10</ele>
        <time>2025-09-25T06:10:28Z</time>
      </trkpt>
      <trkpt lat="47.2324" lon="-1.54882">
        <ele>10.91</ele>
        <time>2025-09-25T06:10:44Z</time>
      </trkpt>
      <trkpt lat="47.23221" lon="-1.54894">
        <ele>11</ele>
        <time>2025-09-25T06:11:00Z</time>
      </trkpt>
      <trkpt lat="47.23203" lon="-1.54908">
        <ele>11</ele>
        <time>2025-09-25T06:11:12Z</time>
      </trkpt>
      <trkpt lat="47.23182" lon="-1.54921">
        <ele>14.64</ele>
        <time>2025-09-25T06:11:28Z</time>
      </trkpt>
      <trkpt lat="47.23168" lon="-1.54938">
        <ele>14.99</ele>
        <time>2025-09-25T06:11:40Z</time>
      </trkpt>
      <trkpt lat="47.23149" lon="-1.54958">
        <ele>11.03</ele>
        <time>2025-09-25T06:11:56Z</time>
      </trkpt>
      <trkpt lat="47.23131" lon="-1.54973">
        <ele>11</ele>
        <time>2025-09-25T06:12:08Z</time>
      </trkpt>
      <trkpt lat="47.23113" lon="-1.54995">
        <ele>11</ele>
        <time>2025-09-25T06:12:24Z</time>
      </trkpt>
      <trkpt lat="47.23096" lon="-1.55013">
        <ele>17.81</ele>
        <time>2025-09-25T06:12:36Z</time>
      </trkpt>
      <trkpt lat="47.23081" lon="-1.55029">
        <ele>13.09</ele>
        <time>2025-09-25T06:12:48Z</time>
      </trkpt>
      <trkpt lat="47.23067" lon="-1.55047">
        <ele>11.06</ele>
        <time>2025-09-25T06:13:00Z</time>
      </trkpt>
      <trkpt lat="47.23047" lon="-1.55068">
        <ele>11</ele>
        <time>2025-09-25T06:13:16Z</time>
      </trkpt>
      <trkpt lat="47.23032" lon="-1.5509">
        <ele>17.37</ele>
        <time>2025-09-25T06:13:28Z</time>
      </trkpt>
      <trkpt lat="47.23014" lon="-1.55112">
        <ele>17.99</ele>
        <time>2025-09-25T06:13:44Z</time>
      </trkpt>
      <trkpt lat="47.22995" lon="-1.5513">
        <ele>10.72</ele>
        <time>2025-09-25T06:14:00Z</time>
      </trkpt>
      <trkpt lat="47.22979" lon="-1.55147">
        <ele>10.02</ele>
        <time>2025-09-25T06:14:12Z</time>
      </trkpt>
      <trkpt lat="47.22965" lon="-1.55167">
        <ele>14.9</ele>
        <time>2025-09-25T06:14:24Z</time>
      </trkpt>
      <trkpt lat="47.2295" lon="-1.55183">
        <ele>16.94</ele>
        <time>2025-09-25T06:14:36Z</time>
      </trkpt>
      <trkpt lat="47.22935" lon="-1.55205">
        <ele>17</ele>
        <time>2025-09-25T06:14:52Z</time>
      </trkpt>
      <trkpt lat="47.22919" lon="-1.55222">
        <ele>17</ele>
        <time>2025-09-25T06:15:04Z</time>
      </trkpt>
      <trkpt lat="47.22903" lon="-1.55241">
        <ele>11.16</ele>
        <time>2025-09-25T06:15:16Z</time>
      </trkpt>
      <trkpt lat="47.22887" lon="-1.55259">
        <ele>12.82</ele>
        <time>2025-09-25T06:15:28Z</time>
      </trkpt>
      <trkpt lat="47.22872" lon="-1.55276">
        <ele>13</ele>
        <time>2025-09-25T06:15:40Z</time>
      </trkpt>
      <trkpt lat="47.22857" lon="-1.55294">
        <ele>13</ele>
        <time>2025-09-25T06:15:52Z</time>
      </trkpt>
      <trkpt lat="47.22841" lon="-1.55318">
        <ele>13</ele>
        <time>2025-09-25T06:16:08Z</time>
      </trkpt>
      <trkpt lat="47.22826" lon="-1.55338">
        <ele>10.06</ele>
        <time>2025-09-25T06:16:20Z</time>
      </trkpt>
      <trkpt lat="47.22809" lon="-1.55355">
        <ele>10</ele>
        <time>2025-09-25T06:16:32Z</time>
      </trkpt>
      <trkpt lat="47.22795" lon="-1.55379">
        <ele>10</ele>
        <time>2025-09-25T06:16:48Z</time>
      </trkpt>
      <trkpt lat="47.2278" lon="-1.55397">
        <ele>10</ele>
        <time>2025-09-25T06:17:00Z</time>
      </trkpt>
      <trkpt lat="47.22762" lon="-1.55422">
        <ele>8.6</ele>
        <time>2025-09-25T06:17:16Z</time>
      </trkpt>
      <trkpt lat="47.22747" lon="-1.55439">
        <ele>8.02</ele>
        <time>2025-09-25T06:17:28Z</time>
      </trkpt>
      <trkpt lat="47.22732" lon="-1.55466">
        <ele>8</ele>
        <time>2025-09-25T06:17:44Z</time>
      </trkpt>
      <trkpt lat="47.22722" lon="-1.5549">
        <ele>8</ele>
        <time>2025-09-25T06:17:56Z</time>
      </trkpt>
      <trkpt lat="47.22711" lon="-1.55512">
        <ele>8.91</ele>
        <time>2025-09-25T06:18:08Z</time>
      </trkpt>
      <trkpt lat="47.22691" lon="-1.5553">
        <ele>9</ele>
        <time>2025-09-25T06:18:24Z</time>
      </trkpt>
      <trkpt lat="47.22677" lon="-1.5551">
        <ele>9</ele>
        <time>2025-09-25T06:18:40Z</time>
      </trkpt>
      <trkpt lat="47.22661" lon="-1.55486">
        <ele>6.21</ele>
        <time>2025-09-25T06:19:12Z</time>
      </trkpt>
      <trkpt lat="47.22643" lon="-1.55469">
        <ele>6.01</ele>
        <time>2025-09-25T06:19:24Z</time>
      </trkpt>
      <trkpt lat="47.22623" lon="-1.55471">
        <ele>6</ele>
        <time>2025-09-25T06:19:36Z</time>
      </trkpt>
      <trkpt lat="47.22601" lon="-1.55473">
        <ele>6</ele>
        <time>2025-09-25T06:19:48Z</time>
      </trkpt>
      <trkpt lat="47.22581" lon="-1.55459">
        <ele>8.1</ele>
        <time>2025-09-25T06:20:04Z</time>
      </trkpt>
      <trkpt lat="47.22567" lon="-1.55436">
        <ele>8.98</ele>
        <time>2025-09-25T06:20:17Z</time>
      </trkpt>
      <trkpt lat="47.22549" lon="-1.55424">
        <ele>9</ele>
        <time>2025-09-25T06:20:30Z</time>
      </trkpt>
      <trkpt lat="47.22533" lon="-1.5541">
        <ele>8.09</ele>
        <time>2025-09-25T06:20:42Z</time>
      </trkpt>
      <trkpt lat="47.22513" lon="-1.55425">
        <ele>8.91</ele>
        <time>2025-09-25T06:20:58Z</time>
      </trkpt>
      <trkpt lat="47.22507" lon="-1.55397">
        <ele>8.02</ele>
        <time>2025-09-25T06:21:10Z</time>
      </trkpt>
      <trkpt lat="47.22488" lon="-1.55377">
        <ele>7.09</ele>
        <time>2025-09-25T06:21:26Z</time>
      </trkpt>
      <trkpt lat="47.22468" lon="-1.55374">
        <ele>7</ele>
        <time>2025-09-25T06:21:38Z</time>
      </trkpt>
      <trkpt lat="47.2245" lon="-1.55369">
        <ele>7</ele>
        <time>2025-09-25T06:21:50Z</time>
      </trkpt>
      <trkpt lat="47.22432" lon="-1.55364">
        <ele>7</ele>
        <time>2025-09-25T06:22:02Z</time>
      </trkpt>
      <trkpt lat="47.22412" lon="-1.55356">
        <ele>9.1</ele>
        <time>2025-09-25T06:22:14Z</time>
      </trkpt>
      <trkpt lat="47.22389" lon="-1.55347">
        <ele>9.99</ele>
        <time>2025-09-25T06:22:30Z</time>
      </trkpt>
      <trkpt lat="47.22368" lon="-1.55345">
        <ele>10</ele>
        <time>2025-09-25T06:22:42Z</time>
      </trkpt>
      <trkpt lat="47.22349" lon="-1.55338">
        <ele>10</ele>
        <time>2025-09-25T06:22:54Z</time>
      </trkpt>
      <trkpt lat="47.2233" lon="-1.55333">
        <ele>5.8</ele>
        <time>2025-09-25T06:23:06Z</time>
      </trkpt>
      <trkpt lat="47.22311" lon="-1.55328">
        <ele>4.05</ele>
        <time>2025-09-25T06:23:18Z</time>
      </trkpt>
      <trkpt lat="47.22291" lon="-1.55333">
        <ele>4</ele>
        <time>2025-09-25T06:23:30Z</time>
      </trkpt>
      <trkpt lat="47.22269" lon="-1.55325">
        <ele>4</ele>
        <time>2025-09-25T06:23:46Z</time>
      </trkpt>
      <trkpt lat="47.2225" lon="-1.55322">
        <ele>6.8</ele>
        <time>2025-09-25T06:23:58Z</time>
      </trkpt>
      <trkpt lat="47.22231" lon="-1.55322">
        <ele>7.97</ele>
        <time>2025-09-25T06:24:10Z</time>
      </trkpt>
      <trkpt lat="47.22212" lon="-1.55328">
        <ele>8</ele>
        <time>2025-09-25T06:24:22Z</time>
      </trkpt>
      <trkpt lat="47.22194" lon="-1.55338">
        <ele>10.73</ele>
        <time>2025-09-25T06:24:34Z</time>
      </trkpt>
      <trkpt lat="47.22173" lon="-1.55342">
        <ele>11</ele>
        <time>2025-09-25T06:24:50Z</time>
      </trkpt>
      <trkpt lat="47.22153" lon="-1.5536">
        <ele>9.05</ele>
        <time>2025-09-25T06:25:06Z</time>
      </trkpt>
      <trkpt lat="47.22136" lon="-1.55376">
        <ele>9</ele>
        <time>2025-09-25T06:25:18Z</time>
      </trkpt>
      <trkpt lat="47.22122" lon="-1.55394">
        <ele>9</ele>
        <time>2025-09-25T06:25:30Z</time>
      </trkpt>
      <trkpt lat="47.22106" lon="-1.5542">
        <ele>10.4</ele>
        <time>2025-09-25T06:25:46Z</time>
      </trkpt>
      <trkpt lat="47.22093" lon="-1.5544">
        <ele>10.98</ele>
        <time>2025-09-25T06:25:58Z</time>
      </trkpt>
      <trkpt lat="47.22082" lon="-1.55462">
        <ele>11.7</ele>
        <time>2025-09-25T06:26:14Z</time>
      </trkpt>
      <trkpt lat="47.22073" lon="-1.55485">
        <ele>11.99</ele>
        <time>2025-09-25T06:26:26Z</time>
      </trkpt>
      <trkpt lat="47.22048" lon="-1.55485">
        <ele>12</ele>
        <time>2025-09-25T06:26:38Z</time>
      </trkpt>
      <trkpt lat="47.22032" lon="-1.55461">
        <ele>12</ele>
        <time>2025-09-25T06:26:50Z</time>
      </trkpt>
      <trkpt lat="47.22027" lon="-1.55435">
        <ele>12</ele>
        <time>2025-09-25T06:27:02Z</time>
      </trkpt>
      <trkpt lat="47.22009" lon="-1.5543">
        <ele>12</ele>
        <time>2025-09-25T06:27:18Z</time>
      </trkpt>
      <trkpt lat="47.21988" lon="-1.55428">
        <ele>12</ele>
        <time>2025-09-25T06:27:34Z</time>
      </trkpt>
      <trkpt lat="47.21984" lon="-1.55401">
        <ele>13.98</ele>
        <time>2025-09-25T06:27:54Z</time>
      </trkpt>
      <trkpt lat="47.21997" lon="-1.5538">
        <ele>14</ele>
        <time>2025-09-25T06:28:06Z</time>
      </trkpt>
      <trkpt lat="47.22008" lon="-1.55349">
        <ele>11.08</ele>
        <time>2025-09-25T06:28:18Z</time>
      </trkpt>
      <trkpt lat="47.22018" lon="-1.5532">
        <ele>12.82</ele>
        <time>2025-09-25T06:28:30Z</time>
      </trkpt>
      <trkpt lat="47.22003" lon="-1.55295">
        <ele>13</ele>
        <time>2025-09-25T06:28:42Z</time>
      </trkpt>
      <trkpt lat="47.21986" lon="-1.55283">
        <ele>13.97</ele>
        <time>2025-09-25T06:28:54Z</time>
      </trkpt>
      <trkpt lat="47.21996" lon="-1.55253">
        <ele>14</ele>
        <time>2025-09-25T06:29:10Z</time>
      </trkpt>
      <trkpt lat="47.21979" lon="-1.55236">
        <ele>15.98</ele>
        <time>2025-09-25T06:29:26Z</time>
      </trkpt>
      <trkpt lat="47.21964" lon="-1.55221">
        <ele>16</ele>
        <time>2025-09-25T06:29:38Z</time>
      </trkpt>
      <trkpt lat="47.21948" lon="-1.55202">
        <ele>16</ele>
        <time>2025-09-25T06:29:50Z</time>
      </trkpt>
      <trkpt lat="47.21929" lon="-1.55186">
        <ele>16</ele>
        <time>2025-09-25T06:30:06Z</time>
      </trkpt>
      <trkpt lat="47.21916" lon="-1.55165">
        <ele>19.5</ele>
        <time>2025-09-25T06:30:18Z</time>
      </trkpt>
      <trkpt lat="47.21902" lon="-1.55146">
        <ele>20.96</ele>
        <time>2025-09-25T06:30:30Z</time>
      </trkpt>
      <trkpt lat="47.21886" lon="-1.55126">
        <ele>21</ele>
        <time>2025-09-25T06:30:46Z</time>
      </trkpt>
      <trkpt lat="47.21868" lon="-1.55121">
        <ele>21</ele>
        <time>2025-09-25T06:30:58Z</time>
      </trkpt>
      <trkpt lat="47.2185" lon="-1.55132">
        <ele>21</ele>
        <time>2025-09-25T06:31:10Z</time>
      </trkpt>
      <trkpt lat="47.21832" lon="-1.55145">
        <ele>23.73</ele>
        <time>2025-09-25T06:31:26Z</time>
      </trkpt>
      <trkpt lat="47.21811" lon="-1.55144">
        <ele>23.99</ele>
        <time>2025-09-25T06:31:38Z</time>
      </trkpt>
      <trkpt lat="47.21798" lon="-1.5512">
        <ele>24</ele>
        <time>2025-09-25T06:31:50Z</time>
      </trkpt>
      <trkpt lat="47.21787" lon="-1.55095">
        <ele>24</ele>
        <time>2025-09-25T06:32:06Z</time>
      </trkpt>
      <trkpt lat="47.21774" lon="-1.55075">
        <ele>26.92</ele>
        <time>2025-09-25T06:32:22Z</time>
      </trkpt>
      <trkpt lat="47.21752" lon="-1.55078">
        <ele>27</ele>
        <time>2025-09-25T06:32:34Z</time>
      </trkpt>
      <trkpt lat="47.2173" lon="-1.55067">
        <ele>24.08</ele>
        <time>2025-09-25T06:32:46Z</time>
      </trkpt>
      <trkpt lat="47.21713" lon="-1.55055">
        <ele>24</ele>
        <time>2025-09-25T06:32:58Z</time>
      </trkpt>
      <trkpt lat="47.21693" lon="-1.55042">
        <ele>24</ele>
        <time>2025-09-25T06:33:14Z</time>
      </trkpt>
      <trkpt lat="47.21675" lon="-1.55036">
        <ele>24</ele>
        <time>2025-09-25T06:33:26Z</time>
      </trkpt>
      <trkpt lat="47.21655" lon="-1.55034">
        <ele>15.81</ele>
        <time>2025-09-25T06:33:38Z</time>
      </trkpt>
      <trkpt lat="47.21634" lon="-1.55053">
        <ele>15.01</ele>
        <time>2025-09-25T06:33:54Z</time>
      </trkpt>
      <trkpt lat="47.21616" lon="-1.55059">
        <ele>15</ele>
        <time>2025-09-25T06:34:06Z</time>
      </trkpt>
      <trkpt lat="47.21597" lon="-1.55059">
        <ele>15</ele>
        <time>2025-09-25T06:34:18Z</time>
      </trkpt>
      <trkpt lat="47.21574" lon="-1.55053">
        <ele>15.91</ele>
        <time>2025-09-25T06:34:34Z</time>
      </trkpt>
      <trkpt lat="47.21558" lon="-1.5504">
        <ele>16</ele>
        <time>2025-09-25T06:34:46Z</time>
      </trkpt>
      <trkpt lat="47.21539" lon="-1.55023">
        <ele>16</ele>
        <time>2025-09-25T06:35:02Z</time>
      </trkpt>
      <trkpt lat="47.21526" lon="-1.54994">
        <ele>11.8</ele>
        <time>2025-09-25T06:35:18Z</time>
      </trkpt>
      <trkpt lat="47.21532" lon="-1.54966">
        <ele>10.05</ele>
        <time>2025-09-25T06:35:30Z</time>
      </trkpt>
      <trkpt lat="47.21542" lon="-1.54935">
        <ele>10</ele>
        <time>2025-09-25T06:35:46Z</time>
      </trkpt>
      <trkpt lat="47.21553" lon="-1.54906">
        <ele>9.09</ele>
        <time>2025-09-25T06:36:02Z</time>
      </trkpt>
      <trkpt lat="47.21563" lon="-1.54881">
        <ele>9</ele>
        <time>2025-09-25T06:36:14Z</time>
      </trkpt>
      <trkpt lat="47.21573" lon="-1.54857">
        <ele>9</ele>
        <time>2025-09-25T06:36:26Z</time>
      </trkpt>
      <trkpt lat="47.21584" lon="-1.54836">
        <ele>10.4</ele>
        <time>2025-09-25T06:36:38Z</time>
      </trkpt>
      <trkpt lat="47.21599" lon="-1.54808">
        <ele>10</ele>
        <time>2025-09-25T06:36:54Z</time>
      </trkpt>
      <trkpt lat="47.21614" lon="-1.54783">
        <ele>10</ele>
        <time>2025-09-25T06:37:10Z</time>
      </trkpt>
      <trkpt lat="47.21625" lon="-1.54752">
        <ele>10</ele>
        <time>2025-09-25T06:37:26Z</time>
      </trkpt>
      <trkpt lat="47.21638" lon="-1.54723">
        <ele>11.98</ele>
        <time>2025-09-25T06:37:42Z</time>
      </trkpt>
      <trkpt lat="47.21649" lon="-1.54686">
        <ele>12</ele>
        <time>2025-09-25T06:37:58Z</time>
      </trkpt>
      <trkpt lat="47.21645" lon="-1.54658">
        <ele>11.09</ele>
        <time>2025-09-25T06:38:14Z</time>
      </trkpt>
      <trkpt lat="47.21652" lon="-1.54632">
        <ele>11</ele>
        <time>2025-09-25T06:38:26Z</time>
      </trkpt>
      <trkpt lat="47.21655" lon="-1.54606">
        <ele>11</ele>
        <time>2025-09-25T06:38:38Z</time>
      </trkpt>
      <trkpt lat="47.21635" lon="-1.54604">
        <ele>11</ele>
        <time>2025-09-25T06:38:50Z</time>
      </trkpt>
      <trkpt lat="47.21621" lon="-1.54588">
        <ele>11</ele>
        <time>2025-09-25T06:39:02Z</time>
      </trkpt>
      <trkpt lat="47.216" lon="-1.54582">
        <ele>9</ele>
        <time>2025-09-25T06:39:22Z</time>
      </trkpt>
      <trkpt lat="47.21585" lon="-1.54554">
        <ele>9</ele>
        <time>2025-09-25T06:39:46Z</time>
      </trkpt>
      <trkpt lat="47.2158" lon="-1.54516">
        <ele>8.03</ele>
        <time>2025-09-25T06:39:58Z</time>
      </trkpt>
      <trkpt lat="47.21581" lon="-1.54483">
        <ele>7.09</ele>
        <time>2025-09-25T06:40:10Z</time>
      </trkpt>
      <trkpt lat="47.21582" lon="-1.54455">
        <ele>7</ele>
        <time>2025-09-25T06:40:22Z</time>
      </trkpt>
      <trkpt lat="47.21584" lon="-1.54427">
        <ele>9.8</ele>
        <time>2025-09-25T06:40:34Z</time>
      </trkpt>
      <trkpt lat="47.21583" lon="-1.54399">
        <ele>8.45</ele>
        <time>2025-09-25T06:40:46Z</time>
      </trkpt>
      <trkpt lat="47.21574" lon="-1.54377">
        <ele>8.01</ele>
        <time>2025-09-25T06:40:58Z</time>
      </trkpt>
      <trkpt lat="47.21556" lon="-1.54354">
        <ele>8</ele>
        <time>2025-09-25T06:41:14Z</time>
      </trkpt>
      <trkpt lat="47.21542" lon="-1.54336">
        <ele>8</ele>
        <time>2025-09-25T06:41:26Z</time>
      </trkpt>
      <trkpt lat="47.21528" lon="-1.54319">
        <ele>7.03</ele>
        <time>2025-09-25T06:41:38Z</time>
      </trkpt>
      <trkpt lat="47.21515" lon="-1.54301">
        <ele>7</ele>
        <time>2025-09-25T06:41:50Z</time>
      </trkpt>
      <trkpt lat="47.21497" lon="-1.54278">
        <ele>6.3</ele>
        <time>2025-09-25T06:42:06Z</time>
      </trkpt>
      <trkpt lat="47.2149" lon="-1.54253">
        <ele>6.01</ele>
        <time>2025-09-25T06:42:18Z</time>
      </trkpt>
      <trkpt lat="47.21475" lon="-1.54227">
        <ele>5.01</ele>
        <time>2025-09-25T06:42:34Z</time>
      </trkpt>
      <trkpt lat="47.21461" lon="-1.5421">
        <ele>5</ele>
        <time>2025-09-25T06:42:46Z</time>
      </trkpt>
      <trkpt lat="47.21446" lon="-1.5419">
        <ele>5</ele>
        <time>2025-09-25T06:42:58Z</time>
      </trkpt>
      <trkpt lat="47.21431" lon="-1.54173">
        <ele>5</ele>
        <time>2025-09-25T06:43:10Z</time>
      </trkpt>
      <trkpt lat="47.21418" lon="-1.54154">
        <ele>8.64</ele>
        <time>2025-09-25T06:43:22Z</time>
      </trkpt>
      <trkpt lat="47.21398" lon="-1.54133">
        <ele>7.01</ele>
        <time>2025-09-25T06:43:38Z</time>
      </trkpt>
      <trkpt lat="47.21381" lon="-1.54111">
        <ele>7</ele>
        <time>2025-09-25T06:43:54Z</time>
      </trkpt>
      <trkpt lat="47.21363" lon="-1.54087">
        <ele>7</ele>
        <time>2025-09-25T06:44:10Z</time>
      </trkpt>
      <trkpt lat="47.21347" lon="-1.54074">
        <ele>8.95</ele>
        <time>2025-09-25T06:44:22Z</time>
      </trkpt>
      <trkpt lat="47.2133" lon="-1.5406">
        <ele>5.5</ele>
        <time>2025-09-25T06:44:34Z</time>
      </trkpt>
      <trkpt lat="47.21314" lon="-1.54037">
        <ele>4.01</ele>
        <time>2025-09-25T06:44:50Z</time>
      </trkpt>
      <trkpt lat="47.21309" lon="-1.54011">
        <ele>4</ele>
        <time>2025-09-25T06:45:02Z</time>
      </trkpt>
      <trkpt lat="47.21306" lon="-1.53984">
        <ele>6.73</ele>
        <time>2025-09-25T06:45:14Z</time>
      </trkpt>
      <trkpt lat="47.21287" lon="-1.53988">
        <ele>6.99</ele>
        <time>2025-09-25T06:45:26Z</time>
      </trkpt>
      <trkpt lat="47.21269" lon="-1.53987">
        <ele>7</ele>
        <time>2025-09-25T06:45:38Z</time>
      </trkpt>
      <trkpt lat="47.21254" lon="-1.53972">
        <ele>7</ele>
        <time>2025-09-25T06:45:50Z</time>
      </trkpt>
      <trkpt lat="47.21247" lon="-1.53944">
        <ele>8.82</ele>
        <time>2025-09-25T06:46:02Z</time>
      </trkpt>
      <trkpt lat="47.2124" lon="-1.53918">
        <ele>9</ele>
        <time>2025-09-25T06:46:14Z</time>
      </trkpt>
      <trkpt lat="47.21234" lon="-1.53893">
        <ele>13.86</ele>
        <time>2025-09-25T06:46:26Z</time>
      </trkpt>
      <trkpt lat="47.21224" lon="-1.53863">
        <ele>14</ele>
        <time>2025-09-25T06:46:38Z</time>
      </trkpt>
      <trkpt lat="47.21219" lon="-1.53835">
        <ele>14</ele>
        <time>2025-09-25T06:46:54Z</time>
      </trkpt>
      <trkpt lat="47.21226" lon="-1.53801">
        <ele>12.02</ele>
        <time>2025-09-25T06:47:10Z</time>
      </trkpt>
      <trkpt lat="47.21231" lon="-1.53774">
        <ele>12</ele>
        <time>2025-09-25T06:47:22Z</time>
      </trkpt>
      <trkpt lat="47.21238" lon="-1.53748">
        <ele>8.5</ele>
        <time>2025-09-25T06:47:34Z</time>
      </trkpt>
      <trkpt lat="47.21241" lon="-1.53722">
        <ele>7.04</ele>
        <time>2025-09-25T06:47:46Z</time>
      </trkpt>
      <trkpt lat="47.21248" lon="-1.5369">
        <ele>7</ele>
        <time>2025-09-25T06:48:02Z</time>
      </trkpt>
      <trkpt lat="47.21257" lon="-1.53659">
        <ele>7.16</ele>
        <time>2025-09-25T06:48:18Z</time>
      </trkpt>
      <trkpt lat="47.2108" lon="-1.5353">
        <ele>6.1</ele>
      </trkpt>
      <trkpt lat="47.20921" lon="-1.53521">
        <ele>9</ele>
      </trkpt>
      <trkpt lat="47.2061" lon="-1.53864">
        <ele>7.1</ele>
      </trkpt>
      <trkpt lat="47.20266" lon="-1.53588">
        <ele>3.3</ele>
      </trkpt>
      <trkpt lat="47.20651" lon="-1.52665">
        <ele>4</ele>
      </trkpt>
      <trkpt lat="47.21051" lon="-1.52098">
        <ele>4.7</ele>
      </trkpt>
      <trkpt lat="47.21239" lon="-1.52422">
        <ele>6</ele>
      </trkpt>
      <trkpt lat="47.21148" lon="-1.52899">
        <ele>5.7</ele>
      </trkpt>
      <trkpt lat="47.21371" lon="-1.52996">
        <ele>10.7</ele>
        <time>2025-09-25T06:53:42Z</time>
      </trkpt>
      <trkpt lat="47.21394" lon="-1.52993">
        <ele>11</ele>
        <time>2025-09-25T06:54:02Z</time>
      </trkpt>
      <trkpt lat="47.21417" lon="-1.52997">
        <ele>9.6</ele>
        <time>2025-09-25T06:54:18Z</time>
      </trkpt>
      <trkpt lat="47.21429" lon="-1.52974">
        <ele>9.02</ele>
        <time>2025-09-25T06:54:30Z</time>
      </trkpt>
      <trkpt lat="47.21452" lon="-1.52982">
        <ele>9</ele>
        <time>2025-09-25T06:54:50Z</time>
      </trkpt>
      <trkpt lat="47.21468" lon="-1.52997">
        <ele>9</ele>
        <time>2025-09-25T06:55:02Z</time>
      </trkpt>
      <trkpt lat="47.21485" lon="-1.53008">
        <ele>9.97</ele>
        <time>2025-09-25T06:55:14Z</time>
      </trkpt>
      <trkpt lat="47.21504" lon="-1.53016">
        <ele>8.6</ele>
        <time>2025-09-25T06:55:26Z</time>
      </trkpt>
      <trkpt lat="47.21523" lon="-1.53029">
        <ele>8.02</ele>
        <time>2025-09-25T06:55:38Z</time>
      </trkpt>
      <trkpt lat="47.21538" lon="-1.53053">
        <ele>8</ele>
        <time>2025-09-25T06:55:50Z</time>
      </trkpt>
      <trkpt lat="47.21558" lon="-1.53069">
        <ele>8</ele>
        <time>2025-09-25T06:56:06Z</time>
      </trkpt>
      <trkpt lat="47.21578" lon="-1.53079">
        <ele>8</ele>
        <time>2025-09-25T06:56:18Z</time>
      </trkpt>
      <trkpt lat="47.21601" lon="-1.53088">
        <ele>5.02</ele>
        <time>2025-09-25T06:56:34Z</time>
      </trkpt>
      <trkpt lat="47.2162" lon="-1.53095">
        <ele>5</ele>
        <time>2025-09-25T06:56:46Z</time>
      </trkpt>
      <trkpt lat="47.21636" lon="-1.53108">
        <ele>5</ele>
        <time>2025-09-25T06:56:58Z</time>
      </trkpt>
      <trkpt lat="47.21654" lon="-1.53114">
        <ele>5</ele>
        <time>2025-09-25T06:57:10Z</time>
      </trkpt>
      <trkpt lat="47.21674" lon="-1.5312">
        <ele>5</ele>
        <time>2025-09-25T06:57:22Z</time>
      </trkpt>
      <trkpt lat="47.21693" lon="-1.53129">
        <ele>5</ele>
        <time>2025-09-25T06:57:34Z</time>
      </trkpt>
      <trkpt lat="47.2171" lon="-1.5314">
        <ele>5</ele>
        <time>2025-09-25T06:57:46Z</time>
      </trkpt>
      <trkpt lat="47.2173" lon="-1.53159">
        <ele>5</ele>
        <time>2025-09-25T06:58:02Z</time>
      </trkpt>
      <trkpt lat="47.2175" lon="-1.53168">
        <ele>5</ele>
        <time>2025-09-25T06:58:14Z</time>
      </trkpt>
      <trkpt lat="47.21771" lon="-1.53177">
        <ele>6.98</ele>
        <time>2025-09-25T06:58:30Z</time>
      </trkpt>
      <trkpt lat="47.2179" lon="-1.53181">
        <ele>7</ele>
        <time>2025-09-25T06:58:42Z</time>
      </trkpt>
      <trkpt lat="47.21808" lon="-1.5319">
        <ele>7</ele>
        <time>2025-09-25T06:58:54Z</time>
      </trkpt>
      <trkpt lat="47.21827" lon="-1.53198">
        <ele>7</ele>
        <time>2025-09-25T06:59:06Z</time>
      </trkpt>
      <trkpt lat="47.21845" lon="-1.53206">
        <ele>6.03</ele>
        <time>2025-09-25T06:59:18Z</time>
      </trkpt>
      <trkpt lat="47.21863" lon="-1.53214">
        <ele>6</ele>
        <time>2025-09-25T06:59:30Z</time>
      </trkpt>
      <trkpt lat="47.21887" lon="-1.53217">
        <ele>6</ele>
        <time>2025-09-25T06:59:46Z</time>
      </trkpt>
      <trkpt lat="47.21907" lon="-1.53228">
        <ele>6</ele>
        <time>2025-09-25T06:59:58Z</time>
      </trkpt>
      <trkpt lat="47.21963" lon="-1.53242">
        <ele>7.4</ele>
        <time>2025-09-25T07:00:34Z</time>
      </trkpt>
      <trkpt lat="47.21964" lon="-1.53272">
        <ele>7.98</ele>
        <time>2025-09-25T07:00:46Z</time>
      </trkpt>
      <trkpt lat="47.21982" lon="-1.53292">
        <ele>8</ele>
        <time>2025-09-25T07:00:58Z</time>
      </trkpt>
      <trkpt lat="47.21998" lon="-1.53308">
        <ele>8</ele>
        <time>2025-09-25T07:01:10Z</time>
      </trkpt>
      <trkpt lat="47.22018" lon="-1.53318">
        <ele>8</ele>
        <time>2025-09-25T07:01:22Z</time>
      </trkpt>
      <trkpt lat="47.22035" lon="-1.5333">
        <ele>8</ele>
        <time>2025-09-25T07:01:34Z</time>
      </trkpt>
      <trkpt lat="47.22051" lon="-1.53344">
        <ele>8</ele>
        <time>2025-09-25T07:01:46Z</time>
      </trkpt>
      <trkpt lat="47.22051" lon="-1.53371">
        <ele>8</ele>
        <time>2025-09-25T07:01:58Z</time>
      </trkpt>
      <trkpt lat="47.22044" lon="-1.53402">
        <ele>8</ele>
        <time>2025-09-25T07:02:14Z</time>
      </trkpt>
      <trkpt lat="47.22031" lon="-1.53424">
        <ele>8</ele>
        <time>2025-09-25T07:02:30Z</time>
      </trkpt>
      <trkpt lat="47.22024" lon="-1.53451">
        <ele>8</ele>
        <time>2025-09-25T07:02:42Z</time>
      </trkpt>
      <trkpt lat="47.22013" lon="-1.5348">
        <ele>8</ele>
        <time>2025-09-25T07:02:54Z</time>
      </trkpt>
      <trkpt lat="47.21996" lon="-1.53465">
        <ele>9.4</ele>
        <time>2025-09-25T07:03:10Z</time>
      </trkpt>
      <trkpt lat="47.21979" lon="-1.53449">
        <ele>9.98</ele>
        <time>2025-09-25T07:03:22Z</time>
      </trkpt>
      <trkpt lat="47.21963" lon="-1.53434">
        <ele>10</ele>
        <time>2025-09-25T07:03:34Z</time>
      </trkpt>
      <trkpt lat="47.2195" lon="-1.53454">
        <ele>10</ele>
        <time>2025-09-25T07:03:46Z</time>
      </trkpt>
      <trkpt lat="47.21944" lon="-1.53481">
        <ele>10</ele>
        <time>2025-09-25T07:03:58Z</time>
      </trkpt>
      <trkpt lat="47.2194" lon="-1.53508">
        <ele>10.7</ele>
        <time>2025-09-25T07:04:10Z</time>
      </trkpt>
      <trkpt lat="47.21935" lon="-1.5354">
        <ele>11</ele>
        <time>2025-09-25T07:04:26Z</time>
      </trkpt>
      <trkpt lat="47.21932" lon="-1.53567">
        <ele>11</ele>
        <time>2025-09-25T07:04:38Z</time>
      </trkpt>
      <trkpt lat="47.21927" lon="-1.53594">
        <ele>11</ele>
        <time>2025-09-25T07:04:50Z</time>
      </trkpt>
      <trkpt lat="47.21923" lon="-1.53621">
        <ele>11</ele>
        <time>2025-09-25T07:05:02Z</time>
      </trkpt>
      <trkpt lat="47.21915" lon="-1.53652">
        <ele>10.3</ele>
        <time>2025-09-25T07:05:18Z</time>
      </trkpt>
      <trkpt lat="47.2191" lon="-1.53679">
        <ele>9.1</ele>
        <time>2025-09-25T07:05:30Z</time>
      </trkpt>
      <trkpt lat="47.21904" lon="-1.53706">
        <ele>9</ele>
        <time>2025-09-25T07:05:42Z</time>
      </trkpt>
      <trkpt lat="47.21899" lon="-1.53738">
        <ele>9</ele>
        <time>2025-09-25T07:05:58Z</time>
      </trkpt>
      <trkpt lat="47.21891" lon="-1.53771">
        <ele>9</ele>
        <time>2025-09-25T07:06:14Z</time>
      </trkpt>
      <trkpt lat="47.21883" lon="-1.53798">
        <ele>9</ele>
        <time>2025-09-25T07:06:30Z</time>
      </trkpt>
      <trkpt lat="47.21872" lon="-1.5382">
        <ele>9</ele>
        <time>2025-09-25T07:06:42Z</time>
      </trkpt>
      <trkpt lat="47.21867" lon="-1.53848">
        <ele>9.91</ele>
        <time>2025-09-25T07:06:54Z</time>
      </trkpt>
      <trkpt lat="47.21861" lon="-1.53878">
        <ele>10</ele>
        <time>2025-09-25T07:07:10Z</time>
      </trkpt>
      <trkpt lat="47.21852" lon="-1.53903">
        <ele>10</ele>
        <time>2025-09-25T07:07:22Z</time>
      </trkpt>
      <trkpt lat="47.21841" lon="-1.53932">
        <ele>10</ele>
        <time>2025-09-25T07:07:38Z</time>
      </trkpt>
      <trkpt lat="47.21838" lon="-1.5396">
        <ele>10</ele>
        <time>2025-09-25T07:07:50Z</time>
      </trkpt>
      <trkpt lat="47.21831" lon="-1.53986">
        <ele>9.09</ele>
        <time>2025-09-25T07:08:02Z</time>
      </trkpt>
      <trkpt lat="47.21825" lon="-1.54011">
        <ele>10.82</ele>
        <time>2025-09-25T07:08:14Z</time>
      </trkpt>
      <trkpt lat="47.21829" lon="-1.54044">
        <ele>11</ele>
        <time>2025-09-25T07:08:26Z</time>
      </trkpt>
      <trkpt lat="47.21821" lon="-1.5407">
        <ele>11</ele>
        <time>2025-09-25T07:09:18Z</time>
      </trkpt>
      <trkpt lat="47.21827" lon="-1.54098">
        <ele>12.82</ele>
        <time>2025-09-25T07:09:30Z</time>
      </trkpt>
      <trkpt lat="47.21819" lon="-1.54122">
        <ele>13</ele>
        <time>2025-09-25T07:09:42Z</time>
      </trkpt>
      <trkpt lat="47.21817" lon="-1.5416">
        <ele>13</ele>
        <time>2025-09-25T07:09:58Z</time>
      </trkpt>
      <trkpt lat="47.21834" lon="-1.5418">
        <ele>12.42</ele>
        <time>2025-09-25T07:10:14Z</time>
      </trkpt>
      <trkpt lat="47.21848" lon="-1.54161">
        <ele>12.28</ele>
        <time>2025-09-25T07:10:26Z</time>
      </trkpt>
      <trkpt lat="47.2186" lon="-1.54141">
        <ele>12.01</ele>
        <time>2025-09-25T07:10:38Z</time>
      </trkpt>
      <trkpt lat="47.21881" lon="-1.54128">
        <ele>12</ele>
        <time>2025-09-25T07:10:54Z</time>
      </trkpt>
      <trkpt lat="47.21899" lon="-1.54125">
        <ele>12</ele>
        <time>2025-09-25T07:11:06Z</time>
      </trkpt>
      <trkpt lat="47.21922" lon="-1.54116">
        <ele>12</ele>
        <time>2025-09-25T07:11:30Z</time>
      </trkpt>
      <trkpt lat="47.21943" lon="-1.54117">
        <ele>12</ele>
        <time>2025-09-25T07:11:42Z</time>
      </trkpt>
      <trkpt lat="47.21965" lon="-1.54129">
        <ele>12</ele>
        <time>2025-09-25T07:11:58Z</time>
      </trkpt>
      <trkpt lat="47.21985" lon="-1.54144">
        <ele>12</ele>
        <time>2025-09-25T07:12:14Z</time>
      </trkpt>
      <trkpt lat="47.22006" lon="-1.54158">
        <ele>12</ele>
        <time>2025-09-25T07:12:30Z</time>
      </trkpt>
      <trkpt lat="47.22025" lon="-1.54171">
        <ele>13.82</ele>
        <time>2025-09-25T07:12:42Z</time>
      </trkpt>
      <trkpt lat="47.22039" lon="-1.54187">
        <ele>14</ele>
        <time>2025-09-25T07:12:54Z</time>
      </trkpt>
      <trkpt lat="47.22053" lon="-1.54209">
        <ele>14</ele>
        <time>2025-09-25T07:13:06Z</time>
      </trkpt>
      <trkpt lat="47.22065" lon="-1.54238">
        <ele>14</ele>
        <time>2025-09-25T07:13:22Z</time>
      </trkpt>
      <trkpt lat="47.22074" lon="-1.54263">
        <ele>14.91</ele>
        <time>2025-09-25T07:13:34Z</time>
      </trkpt>
      <trkpt lat="47.22077" lon="-1.54291">
        <ele>15</ele>
        <time>2025-09-25T07:13:46Z</time>
      </trkpt>
      <trkpt lat="47.22074" lon="-1.54319">
        <ele>15</ele>
        <time>2025-09-25T07:13:58Z</time>
      </trkpt>
      <trkpt lat="47.22067" lon="-1.54348">
        <ele>17.73</ele>
        <time>2025-09-25T07:14:10Z</time>
      </trkpt>
      <trkpt lat="47.22059" lon="-1.54377">
        <ele>18</ele>
        <time>2025-09-25T07:14:26Z</time>
      </trkpt>
      <trkpt lat="47.22049" lon="-1.54408">
        <ele>18</ele>
        <time>2025-09-25T07:14:42Z</time>
      </trkpt>
      <trkpt lat="47.22038" lon="-1.54431">
        <ele>19.95</ele>
        <time>2025-09-25T07:14:54Z</time>
      </trkpt>
      <trkpt lat="47.22029" lon="-1.54456">
        <ele>20</ele>
        <time>2025-09-25T07:15:06Z</time>
      </trkpt>
      <trkpt lat="47.22014" lon="-1.54475">
        <ele>20</ele>
        <time>2025-09-25T07:15:18Z</time>
      </trkpt>
      <trkpt lat="47.22004" lon="-1.54503">
        <ele>20.7</ele>
        <time>2025-09-25T07:15:38Z</time>
      </trkpt>
      <trkpt lat="47.21995" lon="-1.54529">
        <ele>21</ele>
        <time>2025-09-25T07:15:54Z</time>
      </trkpt>
      <trkpt lat="47.21985" lon="-1.54554">
        <ele>21</ele>
        <time>2025-09-25T07:16:06Z</time>
      </trkpt>
      <trkpt lat="47.21974" lon="-1.5458">
        <ele>21</ele>
        <time>2025-09-25T07:16:18Z</time>
      </trkpt>
      <trkpt lat="47.21961" lon="-1.54606">
        <ele>22.95</ele>
        <time>2025-09-25T07:16:30Z</time>
      </trkpt>
      <trkpt lat="47.21951" lon="-1.5463">
        <ele>23</ele>
        <time>2025-09-25T07:16:42Z</time>
      </trkpt>
      <trkpt lat="47.21946" lon="-1.54658">
        <ele>23</ele>
        <time>2025-09-25T07:16:58Z</time>
      </trkpt>
      <trkpt lat="47.21938" lon="-1.54686">
        <ele>23.91</ele>
        <time>2025-09-25T07:17:10Z</time>
      </trkpt>
      <trkpt lat="47.21931" lon="-1.54712">
        <ele>24</ele>
        <time>2025-09-25T07:17:22Z</time>
      </trkpt>
      <trkpt lat="47.21918" lon="-1.54731">
        <ele>24</ele>
        <time>2025-09-25T07:17:34Z</time>
      </trkpt>
      <trkpt lat="47.21908" lon="-1.54753">
        <ele>25.52</ele>
        <time>2025-09-25T07:17:46Z</time>
      </trkpt>
      <trkpt lat="47.21894" lon="-1.54781">
        <ele>25.01</ele>
        <time>2025-09-25T07:17:58Z</time>
      </trkpt>
      <trkpt lat="47.21883" lon="-1.54811">
        <ele>25</ele>
        <time>2025-09-25T07:18:14Z</time>
      </trkpt>
      <trkpt lat="47.21874" lon="-1.54845">
        <ele>24.3</ele>
        <time>2025-09-25T07:18:26Z</time>
      </trkpt>
      <trkpt lat="47.2189" lon="-1.54864">
        <ele>24.01</ele>
        <time>2025-09-25T07:18:38Z</time>
      </trkpt>
      <trkpt lat="47.21906" lon="-1.54876">
        <ele>24</ele>
        <time>2025-09-25T07:18:50Z</time>
      </trkpt>
      <trkpt lat="47.21922" lon="-1.54888">
        <ele>24.91</ele>
        <time>2025-09-25T07:19:02Z</time>
      </trkpt>
      <trkpt lat="47.21933" lon="-1.54909">
        <ele>25</ele>
        <time>2025-09-25T07:19:14Z</time>
      </trkpt>
      <trkpt lat="47.21954" lon="-1.54926">
        <ele>21.11</ele>
        <time>2025-09-25T07:19:30Z</time>
      </trkpt>
      <trkpt lat="47.2197" lon="-1.54939">
        <ele>21</ele>
        <time>2025-09-25T07:19:42Z</time>
      </trkpt>
      <trkpt lat="47.21989" lon="-1.54954">
        <ele>21</ele>
        <time>2025-09-25T07:19:58Z</time>
      </trkpt>
      <trkpt lat="47.22007" lon="-1.54968">
        <ele>21.91</ele>
        <time>2025-09-25T07:20:10Z</time>
      </trkpt>
      <trkpt lat="47.22021" lon="-1.54985">
        <ele>22</ele>
        <time>2025-09-25T07:20:22Z</time>
      </trkpt>
      <trkpt lat="47.22039" lon="-1.54994">
        <ele>22</ele>
        <time>2025-09-25T07:20:34Z</time>
      </trkpt>
      <trkpt lat="47.22058" lon="-1.55012">
        <ele>21.03</ele>
        <time>2025-09-25T07:20:50Z</time>
      </trkpt>
      <trkpt lat="47.22079" lon="-1.55031">
        <ele>21</ele>
        <time>2025-09-25T07:21:06Z</time>
      </trkpt>
      <trkpt lat="47.221" lon="-1.55049">
        <ele>18.02</ele>
        <time>2025-09-25T07:21:22Z</time>
      </trkpt>
      <trkpt lat="47.22118" lon="-1.55064">
        <ele>18</ele>
        <time>2025-09-25T07:21:34Z</time>
      </trkpt>
      <trkpt lat="47.22133" lon="-1.55081">
        <ele>18</ele>
        <time>2025-09-25T07:21:46Z</time>
      </trkpt>
      <trkpt lat="47.22153" lon="-1.55092">
        <ele>13.14</ele>
        <time>2025-09-25T07:21:58Z</time>
      </trkpt>
      <trkpt lat="47.22171" lon="-1.55103">
        <ele>12.3</ele>
        <time>2025-09-25T07:22:14Z</time>
      </trkpt>
      <trkpt lat="47.2219" lon="-1.55112">
        <ele>12.01</ele>
        <time>2025-09-25T07:22:26Z</time>
      </trkpt>
      <trkpt lat="47.22205" lon="-1.55127">
        <ele>12</ele>
        <time>2025-09-25T07:22:38Z</time>
      </trkpt>
      <trkpt lat="47.2222" lon="-1.55143">
        <ele>12</ele>
        <time>2025-09-25T07:22:50Z</time>
      </trkpt>
      <trkpt lat="47.22236" lon="-1.55163">
        <ele>12</ele>
        <time>2025-09-25T07:23:02Z</time>
      </trkpt>
      <trkpt lat="47.22254" lon="-1.55171">
        <ele>7.38</ele>
        <time>2025-09-25T07:23:14Z</time>
      </trkpt>
      <trkpt lat="47.22272" lon="-1.55191">
        <ele>6.01</ele>
        <time>2025-09-25T07:23:30Z</time>
      </trkpt>
      <trkpt lat="47.22291" lon="-1.55203">
        <ele>6</ele>
        <time>2025-09-25T07:23:42Z</time>
      </trkpt>
      <trkpt lat="47.22304" lon="-1.55222">
        <ele>6</ele>
        <time>2025-09-25T07:23:54Z</time>
      </trkpt>
      <trkpt lat="47.22312" lon="-1.55249">
        <ele>6</ele>
        <time>2025-09-25T07:24:06Z</time>
      </trkpt>
      <trkpt lat="47.22332" lon="-1.55262">
        <ele>4.02</ele>
        <time>2025-09-25T07:24:22Z</time>
      </trkpt>
      <trkpt lat="47.22355" lon="-1.55271">
        <ele>8.96</ele>
        <time>2025-09-25T07:24:38Z</time>
      </trkpt>
      <trkpt lat="47.22373" lon="-1.55272">
        <ele>9</ele>
        <time>2025-09-25T07:24:50Z</time>
      </trkpt>
      <trkpt lat="47.22392" lon="-1.55279">
        <ele>9</ele>
        <time>2025-09-25T07:25:02Z</time>
      </trkpt>
      <trkpt lat="47.22416" lon="-1.55281">
        <ele>9</ele>
        <time>2025-09-25T07:25:18Z</time>
      </trkpt>
      <trkpt lat="47.22434" lon="-1.55287">
        <ele>8.03</ele>
        <time>2025-09-25T07:25:30Z</time>
      </trkpt>
      <trkpt lat="47.22452" lon="-1.55291">
        <ele>8</ele>
        <time>2025-09-25T07:25:42Z</time>
      </trkpt>
      <trkpt lat="47.2247" lon="-1.55295">
        <ele>8</ele>
        <time>2025-09-25T07:25:54Z</time>
      </trkpt>
      <trkpt lat="47.22493" lon="-1.55298">
        <ele>8</ele>
        <time>2025-09-25T07:26:10Z</time>
      </trkpt>
      <trkpt lat="47.22513" lon="-1.55301">
        <ele>10.92</ele>
        <time>2025-09-25T07:26:22Z</time>
      </trkpt>
      <trkpt lat="47.22534" lon="-1.55304">
        <ele>11</ele>
        <time>2025-09-25T07:26:34Z</time>
      </trkpt>
      <trkpt lat="47.22554" lon="-1.55312">
        <ele>11</ele>
        <time>2025-09-25T07:26:50Z</time>
      </trkpt>
      <trkpt lat="47.22573" lon="-1.55316">
        <ele>11</ele>
        <time>2025-09-25T07:27:02Z</time>
      </trkpt>
      <trkpt lat="47.22599" lon="-1.5532">
        <ele>11.97</ele>
        <time>2025-09-25T07:27:18Z</time>
      </trkpt>
      <trkpt lat="47.22622" lon="-1.55331">
        <ele>12</ele>
        <time>2025-09-25T07:27:34Z</time>
      </trkpt>
      <trkpt lat="47.2264" lon="-1.55332">
        <ele>12</ele>
        <time>2025-09-25T07:27:46Z</time>
      </trkpt>
      <trkpt lat="47.22663" lon="-1.55336">
        <ele>10.02</ele>
        <time>2025-09-25T07:28:02Z</time>
      </trkpt>
      <trkpt lat="47.22686" lon="-1.5533">
        <ele>5.51</ele>
        <time>2025-09-25T07:28:14Z</time>
      </trkpt>
      <trkpt lat="47.22707" lon="-1.55325">
        <ele>5</ele>
        <time>2025-09-25T07:28:30Z</time>
      </trkpt>
      <trkpt lat="47.22723" lon="-1.55314">
        <ele>5</ele>
        <time>2025-09-25T07:28:42Z</time>
      </trkpt>
      <trkpt lat="47.22735" lon="-1.55294">
        <ele>5</ele>
        <time>2025-09-25T07:28:54Z</time>
      </trkpt>
      <trkpt lat="47.22748" lon="-1.55273">
        <ele>5</ele>
        <time>2025-09-25T07:29:06Z</time>
      </trkpt>
      <trkpt lat="47.22762" lon="-1.55256">
        <ele>8.89</ele>
        <time>2025-09-25T07:29:18Z</time>
      </trkpt>
      <trkpt lat="47.22776" lon="-1.55239">
        <ele>6.27</ele>
        <time>2025-09-25T07:29:30Z</time>
      </trkpt>
      <trkpt lat="47.22795" lon="-1.55216">
        <ele>6</ele>
        <time>2025-09-25T07:29:46Z</time>
      </trkpt>
      <trkpt lat="47.22812" lon="-1.55192">
        <ele>6</ele>
        <time>2025-09-25T07:30:02Z</time>
      </trkpt>
      <trkpt lat="47.22828" lon="-1.55169">
        <ele>6</ele>
        <time>2025-09-25T07:30:18Z</time>
      </trkpt>
      <trkpt lat="47.22841" lon="-1.55147">
        <ele>8.86</ele>
        <time>2025-09-25T07:30:30Z</time>
      </trkpt>
      <trkpt lat="47.22856" lon="-1.55127">
        <ele>9</ele>
        <time>2025-09-25T07:30:42Z</time>
      </trkpt>
      <trkpt lat="47.22872" lon="-1.5511">
        <ele>9</ele>
        <time>2025-09-25T07:30:54Z</time>
      </trkpt>
      <trkpt lat="47.22884" lon="-1.55091">
        <ele>9</ele>
        <time>2025-09-25T07:31:06Z</time>
      </trkpt>
      <trkpt lat="47.22903" lon="-1.55068">
        <ele>9.97</ele>
        <time>2025-09-25T07:31:22Z</time>
      </trkpt>
      <trkpt lat="47.22921" lon="-1.55054">
        <ele>7.9</ele>
        <time>2025-09-25T07:31:34Z</time>
      </trkpt>
      <trkpt lat="47.22938" lon="-1.55037">
        <ele>7.02</ele>
        <time>2025-09-25T07:31:46Z</time>
      </trkpt>
      <trkpt lat="47.22953" lon="-1.55023">
        <ele>7</ele>
        <time>2025-09-25T07:31:58Z</time>
      </trkpt>
      <trkpt lat="47.22967" lon="-1.55003">
        <ele>7</ele>
        <time>2025-09-25T07:32:10Z</time>
      </trkpt>
      <trkpt lat="47.22985" lon="-1.5498">
        <ele>11.96</ele>
        <time>2025-09-25T07:32:26Z</time>
      </trkpt>
      <trkpt lat="47.22998" lon="-1.54961">
        <ele>12</ele>
        <time>2025-09-25T07:32:38Z</time>
      </trkpt>
      <trkpt lat="47.23012" lon="-1.5494">
        <ele>10.05</ele>
        <time>2025-09-25T07:32:50Z</time>
      </trkpt>
      <trkpt lat="47.23023" lon="-1.54918">
        <ele>10</ele>
        <time>2025-09-25T07:33:06Z</time>
      </trkpt>
      <trkpt lat="47.23035" lon="-1.54893">
        <ele>7.08</ele>
        <time>2025-09-25T07:33:18Z</time>
      </trkpt>
      <trkpt lat="47.23049" lon="-1.54869">
        <ele>7</ele>
        <time>2025-09-25T07:33:30Z</time>
      </trkpt>
      <trkpt lat="47.23067" lon="-1.54848">
        <ele>7</ele>
        <time>2025-09-25T07:33:46Z</time>
      </trkpt>
      <trkpt lat="47.23079" lon="-1.54824">
        <ele>8.82</ele>
        <time>2025-09-25T07:33:58Z</time>
      </trkpt>
      <trkpt lat="47.23096" lon="-1.548">
        <ele>11.92</ele>
        <time>2025-09-25T07:34:14Z</time>
      </trkpt>
      <trkpt lat="47.23112" lon="-1.54785">
        <ele>12</ele>
        <time>2025-09-25T07:34:30Z</time>
      </trkpt>
      <trkpt lat="47.23132" lon="-1.54777">
        <ele>12</ele>
        <time>2025-09-25T07:34:42Z</time>
      </trkpt>
      <trkpt lat="47.23151" lon="-1.54766">
        <ele>12</ele>
        <time>2025-09-25T07:34:54Z</time>
      </trkpt>
      <trkpt lat="47.2317" lon="-1.5475">
        <ele>11.3</ele>
        <time>2025-09-25T07:35:06Z</time>
      </trkpt>
      <trkpt lat="47.23188" lon="-1.54744">
        <ele>11.98</ele>
        <time>2025-09-25T07:35:18Z</time>
      </trkpt>
      <trkpt lat="47.23208" lon="-1.54745">
        <ele>12</ele>
        <time>2025-09-25T07:35:30Z</time>
      </trkpt>
      <trkpt lat="47.23225" lon="-1.54737">
        <ele>12</ele>
        <time>2025-09-25T07:35:42Z</time>
      </trkpt>
      <trkpt lat="47.23244" lon="-1.54721">
        <ele>12</ele>
        <time>2025-09-25T07:35:58Z</time>
      </trkpt>
      <trkpt lat="47.23263" lon="-1.5471">
        <ele>7.45</ele>
        <time>2025-09-25T07:36:10Z</time>
      </trkpt>
      <trkpt lat="47.23283" lon="-1.54711">
        <ele>7.01</ele>
        <time>2025-09-25T07:36:22Z</time>
      </trkpt>
      <trkpt lat="47.23303" lon="-1.54721">
        <ele>7</ele>
        <time>2025-09-25T07:36:34Z</time>
      </trkpt>
      <trkpt lat="47.23321" lon="-1.54724">
        <ele>7</ele>
        <time>2025-09-25T07:36:46Z</time>
      </trkpt>
      <trkpt lat="47.2334" lon="-1.54734">
        <ele>10.5</ele>
        <time>2025-09-25T07:36:58Z</time>
      </trkpt>
      <trkpt lat="47.2336" lon="-1.54749">
        <ele>11.99</ele>
        <time>2025-09-25T07:37:14Z</time>
      </trkpt>
      <trkpt lat="47.23378" lon="-1.54761">
        <ele>7.13</ele>
        <time>2025-09-25T07:37:26Z</time>
      </trkpt>
      <trkpt lat="47.23396" lon="-1.54769">
        <ele>7</ele>
        <time>2025-09-25T07:37:38Z</time>
      </trkpt>
      <trkpt lat="47.23416" lon="-1.54769">
        <ele>7</ele>
        <time>2025-09-25T07:37:54Z</time>
      </trkpt>
      <trkpt lat="47.23432" lon="-1.54756">
        <ele>8.95</ele>
        <time>2025-09-25T07:38:06Z</time>
      </trkpt>
      <trkpt lat="47.23453" lon="-1.54756">
        <ele>9</ele>
        <time>2025-09-25T07:38:18Z</time>
      </trkpt>
      <trkpt lat="47.23476" lon="-1.54761">
        <ele>9</ele>
        <time>2025-09-25T07:38:34Z</time>
      </trkpt>
      <trkpt lat="47.23497" lon="-1.54773">
        <ele>9</ele>
        <time>2025-09-25T07:38:46Z</time>
      </trkpt>
      <trkpt lat="47.2351" lon="-1.54796">
        <ele>7.05</ele>
        <time>2025-09-25T07:38:58Z</time>
      </trkpt>
      <trkpt lat="47.23528" lon="-1.54806">
        <ele>7</ele>
        <time>2025-09-25T07:39:10Z</time>
      </trkpt>
      <trkpt lat="47.23547" lon="-1.54816">
        <ele>7</ele>
        <time>2025-09-25T07:39:26Z</time>
      </trkpt>
      <trkpt lat="47.23564" lon="-1.54826">
        <ele>7</ele>
        <time>2025-09-25T07:39:34Z</time>
      </trkpt>
      <trkpt lat="47.23584" lon="-1.54829">
        <ele>8.4</ele>
        <time>2025-09-25T07:39:46Z</time>
      </trkpt>
      <trkpt lat="47.23602" lon="-1.54829">
        <ele>8.98</ele>
        <time>2025-09-25T07:39:58Z</time>
      </trkpt>
      <trkpt lat="47.23625" lon="-1.54835">
        <ele>6.9</ele>
        <time>2025-09-25T07:40:10Z</time>
      </trkpt>
      <trkpt lat="47.23638" lon="-1.54856">
        <ele>6.02</ele>
        <time>2025-09-25T07:40:22Z</time>
      </trkpt>
      <trkpt lat="47.23653" lon="-1.54871">
        <ele>6</ele>
        <time>2025-09-25T07:40:34Z</time>
      </trkpt>
      <trkpt lat="47.23667" lon="-1.54892">
        <ele>7.4</ele>
        <time>2025-09-25T07:40:46Z</time>
      </trkpt>
      <trkpt lat="47.23682" lon="-1.54918">
        <ele>7.3</ele>
        <time>2025-09-25T07:41:02Z</time>
      </trkpt>
      <trkpt lat="47.23699" lon="-1.54931">
        <ele>7</ele>
        <time>2025-09-25T07:41:18Z</time>
      </trkpt>
      <trkpt lat="47.23718" lon="-1.54936">
        <ele>7</ele>
        <time>2025-09-25T07:41:30Z</time>
      </trkpt>
      <trkpt lat="47.23738" lon="-1.54937">
        <ele>7</ele>
        <time>2025-09-25T07:41:42Z</time>
      </trkpt>
      <trkpt lat="47.23756" lon="-1.54919">
        <ele>7.91</ele>
        <time>2025-09-25T07:41:58Z</time>
      </trkpt>
      <trkpt lat="47.23778" lon="-1.54901">
        <ele>9.98</ele>
        <time>2025-09-25T07:42:14Z</time>
      </trkpt>
      <trkpt lat="47.238" lon="-1.54895">
        <ele>10</ele>
        <time>2025-09-25T07:42:30Z</time>
      </trkpt>
      <trkpt lat="47.23816" lon="-1.54877">
        <ele>10</ele>
        <time>2025-09-25T07:42:42Z</time>
      </trkpt>
      <trkpt lat="47.23831" lon="-1.54862">
        <ele>10</ele>
        <time>2025-09-25T07:42:54Z</time>
      </trkpt>
      <trkpt lat="47.2385" lon="-1.54845">
        <ele>10</ele>
        <time>2025-09-25T07:43:10Z</time>
      </trkpt>
      <trkpt lat="47.23865" lon="-1.5483">
        <ele>8.6</ele>
        <time>2025-09-25T07:43:22Z</time>
      </trkpt>
      <trkpt lat="47.23885" lon="-1.54811">
        <ele>8</ele>
        <time>2025-09-25T07:43:38Z</time>
      </trkpt>
      <trkpt lat="47.23906" lon="-1.54813">
        <ele>8</ele>
        <time>2025-09-25T07:43:50Z</time>
      </trkpt>
      <trkpt lat="47.23924" lon="-1.54795">
        <ele>5.27</ele>
        <time>2025-09-25T07:44:06Z</time>
      </trkpt>
      <trkpt lat="47.23943" lon="-1.5478">
        <ele>5</ele>
        <time>2025-09-25T07:44:22Z</time>
      </trkpt>
      <trkpt lat="47.2396" lon="-1.54765">
        <ele>5</ele>
        <time>2025-09-25T07:44:34Z</time>
      </trkpt>
      <trkpt lat="47.23976" lon="-1.5474">
        <ele>4.09</ele>
        <time>2025-09-25T07:44:50Z</time>
      </trkpt>
      <trkpt lat="47.23992" lon="-1.54726">
        <ele>4</ele>
        <time>2025-09-25T07:45:02Z</time>
      </trkpt>
      <trkpt lat="47.24012" lon="-1.5471">
        <ele>6.92</ele>
        <time>2025-09-25T07:45:18Z</time>
      </trkpt>
      <trkpt lat="47.24025" lon="-1.54687">
        <ele>7</ele>
        <time>2025-09-25T07:45:34Z</time>
      </trkpt>
      <trkpt lat="47.24038" lon="-1.54664">
        <ele>8.82</ele>
        <time>2025-09-25T07:45:50Z</time>
      </trkpt>
      <trkpt lat="47.24054" lon="-1.54651">
        <ele>9</ele>
        <time>2025-09-25T07:46:02Z</time>
      </trkpt>
      <trkpt lat="47.24076" lon="-1.54639">
        <ele>9</ele>
        <time>2025-09-25T07:46:18Z</time>
      </trkpt>
      <trkpt lat="47.24094" lon="-1.54628">
        <ele>3.54</ele>
        <time>2025-09-25T07:46:30Z</time>
      </trkpt>
      <trkpt lat="47.24115" lon="-1.54617">
        <ele>3</ele>
        <time>2025-09-25T07:46:46Z</time>
      </trkpt>
      <trkpt lat="47.24134" lon="-1.54612">
        <ele>3</ele>
        <time>2025-09-25T07:46:58Z</time>
      </trkpt>
      <trkpt lat="47.24152" lon="-1.54607">
        <ele>3</ele>
        <time>2025-09-25T07:47:10Z</time>
      </trkpt>
      <trkpt lat="47.24169" lon="-1.54594">
        <ele>3</ele>
        <time>2025-09-25T07:47:22Z</time>
      </trkpt>
      <trkpt lat="47.24186" lon="-1.54585">
        <ele>3</ele>
        <time>2025-09-25T07:47:34Z</time>
      </trkpt>
      <trkpt lat="47.24206" lon="-1.5457">
        <ele>4.98</ele>
        <time>2025-09-25T07:47:50Z</time>
      </trkpt>
      <trkpt lat="47.24199" lon="-1.54546">
        <ele>5</ele>
        <time>2025-09-25T07:48:02Z</time>
      </trkpt>
      <trkpt lat="47.24194" lon="-1.54517">
        <ele>5</ele>
        <time>2025-09-25T07:48:14Z</time>
      </trkpt>
      <trkpt lat="47.24193" lon="-1.5449">
        <ele>5.7</ele>
        <time>2025-09-25T07:48:26Z</time>
      </trkpt>
      <trkpt lat="47.24204" lon="-1.54463">
        <ele>5.99</ele>
        <time>2025-09-25T07:48:38Z</time>
      </trkpt>
      <trkpt lat="47.24216" lon="-1.5444">
        <ele>6</ele>
        <time>2025-09-25T07:48:50Z</time>
      </trkpt>
      <trkpt lat="47.24224" lon="-1.54415">
        <ele>6.7</ele>
        <time>2025-09-25T07:49:02Z</time>
      </trkpt>
      <trkpt lat="47.2423" lon="-1.5439">
        <ele>6.99</ele>
        <time>2025-09-25T07:49:14Z</time>
      </trkpt>
      <trkpt lat="47.24239" lon="-1.5436">
        <ele>7</ele>
        <time>2025-09-25T07:49:30Z</time>
      </trkpt>
      <trkpt lat="47.24251" lon="-1.54329">
        <ele>10.5</ele>
        <time>2025-09-25T07:49:46Z</time>
      </trkpt>
      <trkpt lat="47.24271" lon="-1.54317">
        <ele>11.96</ele>
        <time>2025-09-25T07:49:58Z</time>
      </trkpt>
      <trkpt lat="47.24295" lon="-1.54314">
        <ele>12</ele>
        <time>2025-09-25T07:50:14Z</time>
      </trkpt>
      <trkpt lat="47.24311" lon="-1.54333">
        <ele>12</ele>
        <time>2025-09-25T07:50:30Z</time>
      </trkpt>
      <trkpt lat="47.24326" lon="-1.54354">
        <ele>10.05</ele>
        <time>2025-09-25T07:50:42Z</time>
      </trkpt>
      <trkpt lat="47.24342" lon="-1.54374">
        <ele>7.27</ele>
        <time>2025-09-25T07:50:54Z</time>
      </trkpt>
      <trkpt lat="47.24358" lon="-1.5439">
        <ele>7.01</ele>
        <time>2025-09-25T07:51:06Z</time>
      </trkpt>
      <trkpt lat="47.24376" lon="-1.54413">
        <ele>7</ele>
        <time>2025-09-25T07:51:22Z</time>
      </trkpt>
      <trkpt lat="47.24396" lon="-1.54414">
        <ele>6.18</ele>
        <time>2025-09-25T07:51:38Z</time>
      </trkpt>
      <trkpt lat="47.24411" lon="-1.54397">
        <ele>6.98</ele>
        <time>2025-09-25T07:51:50Z</time>
      </trkpt>
      <trkpt lat="47.24432" lon="-1.54386">
        <ele>5.05</ele>
        <time>2025-09-25T07:52:02Z</time>
      </trkpt>
      <trkpt lat="47.24454" lon="-1.54381">
        <ele>5</ele>
        <time>2025-09-25T07:52:14Z</time>
      </trkpt>
      <trkpt lat="47.24477" lon="-1.54368">
        <ele>5</ele>
        <time>2025-09-25T07:52:30Z</time>
      </trkpt>
      <trkpt lat="47.24498" lon="-1.5436">
        <ele>5</ele>
        <time>2025-09-25T07:52:46Z</time>
      </trkpt>
      <trkpt lat="47.24518" lon="-1.54346">
        <ele>5</ele>
        <time>2025-09-25T07:53:02Z</time>
      </trkpt>
      <trkpt lat="47.24535" lon="-1.54336">
        <ele>5</ele>
        <time>2025-09-25T07:53:14Z</time>
      </trkpt>
      <trkpt lat="47.24557" lon="-1.54325">
        <ele>6.95</ele>
        <time>2025-09-25T07:53:30Z</time>
      </trkpt>
      <trkpt lat="47.24575" lon="-1.54315">
        <ele>7</ele>
        <time>2025-09-25T07:53:42Z</time>
      </trkpt>
      <trkpt lat="47.24592" lon="-1.54305">
        <ele>7.91</ele>
        <time>2025-09-25T07:53:54Z</time>
      </trkpt>
      <trkpt lat="47.24607" lon="-1.54286">
        <ele>8</ele>
        <time>2025-09-25T07:54:06Z</time>
      </trkpt>
      <trkpt lat="47.24625" lon="-1.54267">
        <ele>8</ele>
        <time>2025-09-25T07:54:18Z</time>
      </trkpt>
      <trkpt lat="47.24641" lon="-1.54248">
        <ele>8.7</ele>
        <time>2025-09-25T07:54:30Z</time>
      </trkpt>
      <trkpt lat="47.24658" lon="-1.54235">
        <ele>8.99</ele>
        <time>2025-09-25T07:54:42Z</time>
      </trkpt>
      <trkpt lat="47.24678" lon="-1.54227">
        <ele>7.18</ele>
        <time>2025-09-25T07:54:54Z</time>
      </trkpt>
      <trkpt lat="47.24696" lon="-1.54221">
        <ele>7</ele>
        <time>2025-09-25T07:55:06Z</time>
      </trkpt>
      <trkpt lat="47.24714" lon="-1.54209">
        <ele>7</ele>
        <time>2025-09-25T07:55:18Z</time>
      </trkpt>
      <trkpt lat="47.24731" lon="-1.54196">
        <ele>7</ele>
        <time>2025-09-25T07:55:30Z</time>
      </trkpt>
      <trkpt lat="47.2475" lon="-1.54188">
        <ele>7</ele>
        <time>2025-09-25T07:55:42Z</time>
      </trkpt>
      <trkpt lat="47.24768" lon="-1.54167">
        <ele>3.03</ele>
        <time>2025-09-25T07:55:58Z</time>
      </trkpt>
      <trkpt lat="47.24784" lon="-1.54137">
        <ele>3</ele>
        <time>2025-09-25T07:56:14Z</time>
      </trkpt>
      <trkpt lat="47.24796" lon="-1.54114">
        <ele>3</ele>
        <time>2025-09-25T07:56:26Z</time>
      </trkpt>
      <trkpt lat="47.24809" lon="-1.54094">
        <ele>3</ele>
        <time>2025-09-25T07:56:38Z</time>
      </trkpt>
      <trkpt lat="47.24821" lon="-1.54068">
        <ele>3.91</ele>
        <time>2025-09-25T07:56:54Z</time>
      </trkpt>
      <trkpt lat="47.2482" lon="-1.54041">
        <ele>4</ele>
        <time>2025-09-25T07:57:06Z</time>
      </trkpt>
      <trkpt lat="47.24835" lon="-1.54012">
        <ele>3.3</ele>
        <time>2025-09-25T07:57:22Z</time>
      </trkpt>
      <trkpt lat="47.24859" lon="-1.54001">
        <ele>3</ele>
        <time>2025-09-25T07:57:38Z</time>
      </trkpt>
      <trkpt lat="47.2487" lon="-1.53978">
        <ele>6.89</ele>
        <time>2025-09-25T07:57:50Z</time>
      </trkpt>
      <trkpt lat="47.24876" lon="-1.53943">
        <ele>7</ele>
        <time>2025-09-25T07:58:06Z</time>
      </trkpt>
      <trkpt lat="47.24892" lon="-1.53922">
        <ele>7</ele>
        <time>2025-09-25T07:58:22Z</time>
      </trkpt>
      <trkpt lat="47.24912" lon="-1.53934">
        <ele>7</ele>
        <time>2025-09-25T07:58:38Z</time>
      </trkpt>
      <trkpt lat="47.24929" lon="-1.53945">
        <ele>3.11</ele>
        <time>2025-09-25T07:58:50Z</time>
      </trkpt>
      <trkpt lat="47.24942" lon="-1.53965">
        <ele>3</ele>
        <time>2025-09-25T07:59:02Z</time>
      </trkpt>
      <trkpt lat="47.24958" lon="-1.53978">
        <ele>3</ele>
        <time>2025-09-25T07:59:14Z</time>
      </trkpt>
      <trkpt lat="47.2498" lon="-1.53972">
        <ele>3</ele>
        <time>2025-09-25T07:59:30Z</time>
      </trkpt>
      <trkpt lat="47.24992" lon="-1.53948">
        <ele>3</ele>
        <time>2025-09-25T07:59:42Z</time>
      </trkpt>
      <trkpt lat="47.25005" lon="-1.53926">
        <ele>3</ele>
        <time>2025-09-25T07:59:54Z</time>
      </trkpt>
      <trkpt lat="47.25021" lon="-1.53907">
        <ele>3.91</ele>
        <time>2025-09-25T08:00:06Z</time>
      </trkpt>
      <trkpt lat="47.25036" lon="-1.53892">
        <ele>4</ele>
        <time>2025-09-25T08:00:18Z</time>
      </trkpt>
      <trkpt lat="47.25023" lon="-1.53864">
        <ele>4</ele>
        <time>2025-09-25T08:00:34Z</time>
      </trkpt>
      <trkpt lat="47.25018" lon="-1.53833">
        <ele>10.3</ele>
        <time>2025-09-25T08:00:46Z</time>
      </trkpt>
      <trkpt lat="47.25037" lon="-1.53814">
        <ele>12.93</ele>
        <time>2025-09-25T08:00:58Z</time>
      </trkpt>
      <trkpt lat="47.25055" lon="-1.53831">
        <ele>13</ele>
        <time>2025-09-25T08:01:10Z</time>
      </trkpt>
      <trkpt lat="47.25065" lon="-1.53859">
        <ele>4.24</ele>
        <time>2025-09-25T08:01:22Z</time>
      </trkpt>
      <trkpt lat="47.25081" lon="-1.53875">
        <ele>4.01</ele>
        <time>2025-09-25T08:01:34Z</time>
      </trkpt>
      <trkpt lat="47.25098" lon="-1.53884">
        <ele>4</ele>
        <time>2025-09-25T08:01:46Z</time>
      </trkpt>
      <trkpt lat="47.25116" lon="-1.53889">
        <ele>4</ele>
        <time>2025-09-25T08:01:58Z</time>
      </trkpt>
      <trkpt lat="47.25134" lon="-1.53882">
        <ele>4</ele>
        <time>2025-09-25T08:02:10Z</time>
      </trkpt>
      <trkpt lat="47.25152" lon="-1.53875">
        <ele>4</ele>
        <time>2025-09-25T08:02:22Z</time>
      </trkpt>
      <trkpt lat="47.25173" lon="-1.53867">
        <ele>4</ele>
        <time>2025-09-25T08:02:34Z</time>
      </trkpt>
      <trkpt lat="47.25194" lon="-1.53863">
        <ele>4</ele>
        <time>2025-09-25T08:02:50Z</time>
      </trkpt>
      <trkpt lat="47.25215" lon="-1.5386">
        <ele>4</ele>
        <time>2025-09-25T08:03:02Z</time>
      </trkpt>
      <trkpt lat="47.25234" lon="-1.53851">
        <ele>4</ele>
        <time>2025-09-25T08:03:18Z</time>
      </trkpt>
      <trkpt lat="47.2525" lon="-1.53834">
        <ele>4</ele>
        <time>2025-09-25T08:03:30Z</time>
      </trkpt>
      <trkpt lat="47.25267" lon="-1.53817">
        <ele>7.89</ele>
        <time>2025-09-25T08:03:42Z</time>
      </trkpt>
      <trkpt lat="47.2529" lon="-1.53807">
        <ele>8</ele>
        <time>2025-09-25T08:03:58Z</time>
      </trkpt>
      <trkpt lat="47.25311" lon="-1.53806">
        <ele>8</ele>
        <time>2025-09-25T08:04:10Z</time>
      </trkpt>
      <trkpt lat="47.25336" lon="-1.53807">
        <ele>10.8</ele>
        <time>2025-09-25T08:04:26Z</time>
      </trkpt>
      <trkpt lat="47.25354" lon="-1.5381">
        <ele>11.97</ele>
        <time>2025-09-25T08:04:38Z</time>
      </trkpt>
      <trkpt lat="47.25377" lon="-1.53814">
        <ele>12</ele>
        <time>2025-09-25T08:04:54Z</time>
      </trkpt>
      <trkpt lat="47.25396" lon="-1.53819">
        <ele>12</ele>
        <time>2025-09-25T08:05:06Z</time>
      </trkpt>
      <trkpt lat="47.25418" lon="-1.53824">
        <ele>10.6</ele>
        <time>2025-09-25T08:05:22Z</time>
      </trkpt>
      <trkpt lat="47.25439" lon="-1.53823">
        <ele>10.02</ele>
        <time>2025-09-25T08:05:34Z</time>
      </trkpt>
      <trkpt lat="47.2546" lon="-1.53823">
        <ele>10</ele>
        <time>2025-09-25T08:05:46Z</time>
      </trkpt>
      <trkpt lat="47.25478" lon="-1.53824">
        <ele>10</ele>
        <time>2025-09-25T08:05:58Z</time>
      </trkpt>
      <trkpt lat="47.25498" lon="-1.53829">
        <ele>10</ele>
        <time>2025-09-25T08:06:10Z</time>
      </trkpt>
      <trkpt lat="47.25519" lon="-1.53826">
        <ele>9.01</ele>
        <time>2025-09-25T08:06:26Z</time>
      </trkpt>
      <trkpt lat="47.25539" lon="-1.53827">
        <ele>9</ele>
        <time>2025-09-25T08:06:42Z</time>
      </trkpt>
      <trkpt lat="47.25554" lon="-1.53848">
        <ele>6.19</ele>
        <time>2025-09-25T08:07:34Z</time>
      </trkpt>
      <trkpt lat="47.25564" lon="-1.53878">
        <ele>6</ele>
        <time>2025-09-25T08:07:50Z</time>
      </trkpt>
      <trkpt lat="47.25572" lon="-1.53909">
        <ele>6</ele>
        <time>2025-09-25T08:08:06Z</time>
      </trkpt>
      <trkpt lat="47.25581" lon="-1.53939">
        <ele>11.84</ele>
        <time>2025-09-25T08:08:22Z</time>
      </trkpt>
      <trkpt lat="47.25589" lon="-1.53969">
        <ele>12.97</ele>
        <time>2025-09-25T08:08:38Z</time>
      </trkpt>
      <trkpt lat="47.25609" lon="-1.53965">
        <ele>13</ele>
        <time>2025-09-25T08:09:34Z</time>
      </trkpt>
      <trkpt lat="47.25623" lon="-1.53949">
        <ele>13</ele>
        <time>2025-09-25T08:09:50Z</time>
      </trkpt>
      <trkpt lat="47.25643" lon="-1.53938">
        <ele>13</ele>
        <time>2025-09-25T08:10:02Z</time>
      </trkpt>
      <trkpt lat="47.25666" lon="-1.53931">
        <ele>13</ele>
        <time>2025-09-25T08:10:18Z</time>
      </trkpt>
      <trkpt lat="47.25689" lon="-1.53918">
        <ele>12.01</ele>
        <time>2025-09-25T08:10:34Z</time>
      </trkpt>
      <trkpt lat="47.25709" lon="-1.53909">
        <ele>7.14</ele>
        <time>2025-09-25T08:10:46Z</time>
      </trkpt>
      <trkpt lat="47.25727" lon="-1.53917">
        <ele>10.5</ele>
        <time>2025-09-25T08:10:58Z</time>
      </trkpt>
      <trkpt lat="47.25742" lon="-1.53943">
        <ele>11.99</ele>
        <time>2025-09-25T08:11:14Z</time>
      </trkpt>
      <trkpt lat="47.25762" lon="-1.53961">
        <ele>12.97</ele>
        <time>2025-09-25T08:11:30Z</time>
      </trkpt>
      <trkpt lat="47.25786" lon="-1.53956">
        <ele>13</ele>
        <time>2025-09-25T08:11:46Z</time>
      </trkpt>
      <trkpt lat="47.25805" lon="-1.53952">
        <ele>13</ele>
        <time>2025-09-25T08:11:58Z</time>
      </trkpt>
      <trkpt lat="47.25823" lon="-1.53947">
        <ele>13</ele>
        <time>2025-09-25T08:12:10Z</time>
      </trkpt>
      <trkpt lat="47.25844" lon="-1.53941">
        <ele>14.95</ele>
        <time>2025-09-25T08:12:26Z</time>
      </trkpt>
      <trkpt lat="47.25863" lon="-1.5393">
        <ele>15</ele>
        <time>2025-09-25T08:12:38Z</time>
      </trkpt>
      <trkpt lat="47.2588" lon="-1.53916">
        <ele>11.5</ele>
        <time>2025-09-25T08:12:50Z</time>
      </trkpt>
      <trkpt lat="47.25897" lon="-1.53903">
        <ele>10.04</ele>
        <time>2025-09-25T08:13:02Z</time>
      </trkpt>
      <trkpt lat="47.25919" lon="-1.53887">
        <ele>11.4</ele>
        <time>2025-09-25T08:13:18Z</time>
      </trkpt>
      <trkpt lat="47.25941" lon="-1.53875">
        <ele>12</ele>
        <time>2025-09-25T08:13:34Z</time>
      </trkpt>
      <trkpt lat="47.2596" lon="-1.53857">
        <ele>12</ele>
        <time>2025-09-25T08:13:50Z</time>
      </trkpt>
      <trkpt lat="47.25983" lon="-1.53844">
        <ele>12</ele>
        <time>2025-09-25T08:14:06Z</time>
      </trkpt>
      <trkpt lat="47.26003" lon="-1.5384">
        <ele>13.4</ele>
        <time>2025-09-25T08:14:18Z</time>
      </trkpt>
      <trkpt lat="47.26022" lon="-1.5384">
        <ele>13.98</ele>
        <time>2025-09-25T08:14:30Z</time>
      </trkpt>
      <trkpt lat="47.2604" lon="-1.53839">
        <ele>14</ele>
        <time>2025-09-25T08:14:42Z</time>
      </trkpt>
      <trkpt lat="47.2606" lon="-1.53839">
        <ele>14</ele>
        <time>2025-09-25T08:14:54Z</time>
      </trkpt>
      <trkpt lat="47.26083" lon="-1.53841">
        <ele>14</ele>
        <time>2025-09-25T08:15:10Z</time>
      </trkpt>
      <trkpt lat="47.26103" lon="-1.53831">
        <ele>9.94</ele>
        <time>2025-09-25T08:15:26Z</time>
      </trkpt>
      <trkpt lat="47.26127" lon="-1.53833">
        <ele>9.01</ele>
        <time>2025-09-25T08:15:42Z</time>
      </trkpt>
      <trkpt lat="47.26146" lon="-1.53831">
        <ele>9</ele>
        <time>2025-09-25T08:15:54Z</time>
      </trkpt>
      <trkpt lat="47.26168" lon="-1.53839">
        <ele>14.8</ele>
        <time>2025-09-25T08:16:10Z</time>
      </trkpt>
      <trkpt lat="47.26192" lon="-1.5385">
        <ele>13.01</ele>
        <time>2025-09-25T08:16:26Z</time>
      </trkpt>
      <trkpt lat="47.26208" lon="-1.53863">
        <ele>13</ele>
        <time>2025-09-25T08:16:38Z</time>
      </trkpt>
      <trkpt lat="47.26226" lon="-1.53878">
        <ele>13</ele>
        <time>2025-09-25T08:16:54Z</time>
      </trkpt>
      <trkpt lat="47.26248" lon="-1.53898">
        <ele>13</ele>
        <time>2025-09-25T08:17:10Z</time>
      </trkpt>
      <trkpt lat="47.26268" lon="-1.53912">
        <ele>6.06</ele>
        <time>2025-09-25T08:17:26Z</time>
      </trkpt>
      <trkpt lat="47.26284" lon="-1.53929">
        <ele>8.92</ele>
        <time>2025-09-25T08:17:38Z</time>
      </trkpt>
      <trkpt lat="47.26301" lon="-1.53945">
        <ele>9</ele>
        <time>2025-09-25T08:17:50Z</time>
      </trkpt>
      <trkpt lat="47.26321" lon="-1.53963">
        <ele>9</ele>
        <time>2025-09-25T08:18:06Z</time>
      </trkpt>
      <trkpt lat="47.26343" lon="-1.53975">
        <ele>6.27</ele>
        <time>2025-09-25T08:18:22Z</time>
      </trkpt>
      <trkpt lat="47.26361" lon="-1.53982">
        <ele>6.01</ele>
        <time>2025-09-25T08:18:34Z</time>
      </trkpt>
      <trkpt lat="47.26381" lon="-1.53984">
        <ele>6</ele>
        <time>2025-09-25T08:18:50Z</time>
      </trkpt>
      <trkpt lat="47.26402" lon="-1.53992">
        <ele>6</ele>
        <time>2025-09-25T08:19:02Z</time>
      </trkpt>
      <trkpt lat="47.26428" lon="-1.53996">
        <ele>6</ele>
        <time>2025-09-25T08:19:18Z</time>
      </trkpt>
      <trkpt lat="47.26447" lon="-1.54">
        <ele>9.64</ele>
        <time>2025-09-25T08:19:30Z</time>
      </trkpt>
      <trkpt lat="47.26465" lon="-1.53993">
        <ele>6.1</ele>
        <time>2025-09-25T08:19:42Z</time>
      </trkpt>
      <trkpt lat="47.26482" lon="-1.53983">
        <ele>6</ele>
        <time>2025-09-25T08:19:54Z</time>
      </trkpt>
      <trkpt lat="47.26504" lon="-1.5398">
        <ele>10.9</ele>
        <time>2025-09-25T08:20:11Z</time>
      </trkpt>
      <trkpt lat="47.26522" lon="-1.53988">
        <ele>12.94</ele>
        <time>2025-09-25T08:20:23Z</time>
      </trkpt>
      <trkpt lat="47.2654" lon="-1.53998">
        <ele>13</ele>
        <time>2025-09-25T08:20:35Z</time>
      </trkpt>
      <trkpt lat="47.26563" lon="-1.5401">
        <ele>14.98</ele>
        <time>2025-09-25T08:20:51Z</time>
      </trkpt>
      <trkpt lat="47.2676" lon="-1.53882">
        <ele>5.6</ele>
      </trkpt>
      <trkpt lat="47.26815" lon="-1.54028">
        <ele>12.7</ele>
      </trkpt>
      <trkpt lat="47.26665" lon="-1.54201">
        <ele>17.5</ele>
      </trkpt>
      <trkpt lat="47.26634" lon="-1.54258">
        <ele>21</ele>
        <time>2025-09-25T08:34:52Z</time>
      </trkpt>
      <trkpt lat="47.26627" lon="-1.54288">
        <ele>21</ele>
        <time>2025-09-25T08:35:08Z</time>
      </trkpt>
      <trkpt lat="47.2663" lon="-1.54319">
        <ele>21</ele>
        <time>2025-09-25T08:35:20Z</time>
      </trkpt>
      <trkpt lat="47.26635" lon="-1.54345">
        <ele>22.82</ele>
        <time>2025-09-25T08:35:32Z</time>
      </trkpt>
      <trkpt lat="47.26631" lon="-1.54372">
        <ele>23</ele>
        <time>2025-09-25T08:35:44Z</time>
      </trkpt>
      <trkpt lat="47.2661" lon="-1.54381">
        <ele>23</ele>
        <time>2025-09-25T08:36:00Z</time>
      </trkpt>
      <trkpt lat="47.26587" lon="-1.54386">
        <ele>23</ele>
        <time>2025-09-25T08:36:16Z</time>
      </trkpt>
      <trkpt lat="47.26581" lon="-1.54411">
        <ele>22.01</ele>
        <time>2025-09-25T08:36:32Z</time>
      </trkpt>
      <trkpt lat="47.26588" lon="-1.54444">
        <ele>24.81</ele>
        <time>2025-09-25T08:36:48Z</time>
      </trkpt>
      <trkpt lat="47.26602" lon="-1.54463">
        <ele>24.99</ele>
        <time>2025-09-25T08:37:00Z</time>
      </trkpt>
      <trkpt lat="47.26625" lon="-1.54458">
        <ele>25</ele>
        <time>2025-09-25T08:37:16Z</time>
      </trkpt>
      <trkpt lat="47.26643" lon="-1.54454">
        <ele>25</ele>
        <time>2025-09-25T08:37:28Z</time>
      </trkpt>
      <trkpt lat="47.26665" lon="-1.54451">
        <ele>25</ele>
        <time>2025-09-25T08:37:44Z</time>
      </trkpt>
      <trkpt lat="47.26687" lon="-1.54456">
        <ele>27.98</ele>
        <time>2025-09-25T08:38:00Z</time>
      </trkpt>
      <trkpt lat="47.26709" lon="-1.5446">
        <ele>28</ele>
        <time>2025-09-25T08:38:16Z</time>
      </trkpt>
      <trkpt lat="47.26729" lon="-1.54468">
        <ele>28</ele>
        <time>2025-09-25T08:38:28Z</time>
      </trkpt>
      <trkpt lat="47.26747" lon="-1.54479">
        <ele>28</ele>
        <time>2025-09-25T08:38:40Z</time>
      </trkpt>
      <trkpt lat="47.2676" lon="-1.54499">
        <ele>28</ele>
        <time>2025-09-25T08:38:52Z</time>
      </trkpt>
      <trkpt lat="47.26784" lon="-1.54508">
        <ele>28.97</ele>
        <time>2025-09-25T08:39:08Z</time>
      </trkpt>
      <trkpt lat="47.26799" lon="-1.54522">
        <ele>29</ele>
        <time>2025-09-25T08:39:20Z</time>
      </trkpt>
      <trkpt lat="47.26818" lon="-1.54544">
        <ele>29</ele>
        <time>2025-09-25T08:39:36Z</time>
      </trkpt>
      <trkpt lat="47.26839" lon="-1.54558">
        <ele>31.73</ele>
        <time>2025-09-25T08:39:52Z</time>
      </trkpt>
      <trkpt lat="47.2686" lon="-1.54555">
        <ele>32</ele>
        <time>2025-09-25T08:40:08Z</time>
      </trkpt>
      <trkpt lat="47.26879" lon="-1.54542">
        <ele>32</ele>
        <time>2025-09-25T08:40:24Z</time>
      </trkpt>
      <trkpt lat="47.26894" lon="-1.54517">
        <ele>32</ele>
        <time>2025-09-25T08:40:40Z</time>
      </trkpt>
      <trkpt lat="47.26902" lon="-1.54485">
        <ele>28.36</ele>
        <time>2025-09-25T08:40:56Z</time>
      </trkpt>
    </trkseg>
  </trk>
</gpx>